<?xml version="1.0" encoding="UTF-8" standalone="no" ?>
<gpx xmlns="http://www.topografix.com/GPX/1/1" xmlns:xsi="http://www.w3.org/2001/XMLSchema-instance" xsi:schemaLocation="http://www.topografix.com/GPX/1/1 http://www.topografix.com/GPX/1/1/gpx.xsd" version="1.1" creator="VisuGPX - https://www.visugpx.com">
  <metadata>
    <name>Landevennec-Fusionné</name>
  </metadata>
  <trk>
    <name><![CDATA[Landevennec-Fusionné_2]]></name>
    <extensions>
      <line xmlns="http://www.topografix.com/GPX/gpx_style/0/2">
        <color>ff0033</color>
        <width>4</width>
      </line>
    </extensions>
    <trkseg>
      <trkpt lat="48.27495" lon="-4.29364">
        <ele>38.2</ele>
      </trkpt>
      <trkpt lat="48.27498" lon="-4.29409">
        <ele>38.8</ele>
      </trkpt>
      <trkpt lat="48.27483" lon="-4.2946">
        <ele>38.7</ele>
      </trkpt>
      <trkpt lat="48.27475" lon="-4.29501">
        <ele>39.5</ele>
      </trkpt>
      <trkpt lat="48.2747" lon="-4.29576">
        <ele>41.9</ele>
      </trkpt>
      <trkpt lat="48.27468" lon="-4.29641">
        <ele>46.2</ele>
      </trkpt>
      <trkpt lat="48.27454" lon="-4.29677">
        <ele>45.2</ele>
      </trkpt>
      <trkpt lat="48.27441" lon="-4.29756">
        <ele>45.1</ele>
      </trkpt>
      <trkpt lat="48.27437" lon="-4.29842">
        <ele>44.4</ele>
      </trkpt>
      <trkpt lat="48.27428" lon="-4.29909">
        <ele>43.3</ele>
      </trkpt>
      <trkpt lat="48.27438" lon="-4.29982">
        <ele>46.8</ele>
      </trkpt>
      <trkpt lat="48.27428" lon="-4.30055">
        <ele>46.5</ele>
      </trkpt>
      <trkpt lat="48.27424" lon="-4.30158">
        <ele>50.7</ele>
      </trkpt>
      <trkpt lat="48.27401" lon="-4.30252">
        <ele>52.9</ele>
      </trkpt>
      <trkpt lat="48.27364" lon="-4.30314">
        <ele>49.2</ele>
      </trkpt>
      <trkpt lat="48.2735" lon="-4.30392">
        <ele>49.8</ele>
      </trkpt>
      <trkpt lat="48.27328" lon="-4.30488">
        <ele>47.4</ele>
      </trkpt>
      <trkpt lat="48.27305" lon="-4.30559">
        <ele>43.1</ele>
      </trkpt>
      <trkpt lat="48.27287" lon="-4.30634">
        <ele>40.1</ele>
      </trkpt>
      <trkpt lat="48.27267" lon="-4.30701">
        <ele>38.9</ele>
      </trkpt>
      <trkpt lat="48.27218" lon="-4.30737">
        <ele>33.4</ele>
      </trkpt>
      <trkpt lat="48.27171" lon="-4.30759">
        <ele>30.8</ele>
      </trkpt>
      <trkpt lat="48.27087" lon="-4.30746">
        <ele>36.6</ele>
      </trkpt>
      <trkpt lat="48.27081" lon="-4.30814">
        <ele>37.2</ele>
      </trkpt>
      <trkpt lat="48.27061" lon="-4.30872">
        <ele>38.6</ele>
      </trkpt>
      <trkpt lat="48.27025" lon="-4.30995">
        <ele>40.4</ele>
      </trkpt>
      <trkpt lat="48.27008" lon="-4.3104">
        <ele>41.1</ele>
        <time>2022-05-20T09:50:15.000Z</time>
      </trkpt>
      <trkpt lat="48.26995" lon="-4.31083">
        <ele>42</ele>
        <time>2022-05-20T09:50:45.000Z</time>
      </trkpt>
      <trkpt lat="48.26973" lon="-4.31074">
        <ele>47</ele>
        <time>2022-05-20T09:51:02.000Z</time>
      </trkpt>
      <trkpt lat="48.26972" lon="-4.31074">
        <ele>47</ele>
        <time>2022-05-20T09:51:03.000Z</time>
      </trkpt>
      <trkpt lat="48.26971" lon="-4.31074">
        <ele>47</ele>
        <time>2022-05-20T09:51:04.000Z</time>
      </trkpt>
      <trkpt lat="48.2695" lon="-4.31067">
        <ele>50</ele>
        <time>2022-05-20T09:51:20.000Z</time>
      </trkpt>
      <trkpt lat="48.26936" lon="-4.31061">
        <ele>53</ele>
        <time>2022-05-20T09:51:32.000Z</time>
      </trkpt>
      <trkpt lat="48.26931" lon="-4.31061">
        <ele>53</ele>
        <time>2022-05-20T09:51:36.000Z</time>
      </trkpt>
      <trkpt lat="48.26912" lon="-4.31053">
        <ele>57</ele>
        <time>2022-05-20T09:51:51.000Z</time>
      </trkpt>
      <trkpt lat="48.26891" lon="-4.31045">
        <ele>61</ele>
        <time>2022-05-20T09:52:08.000Z</time>
      </trkpt>
      <trkpt lat="48.26868" lon="-4.31038">
        <ele>65</ele>
        <time>2022-05-20T09:52:26.000Z</time>
      </trkpt>
      <trkpt lat="48.26844" lon="-4.3103">
        <ele>69</ele>
        <time>2022-05-20T09:52:44.000Z</time>
      </trkpt>
      <trkpt lat="48.26822" lon="-4.31022">
        <ele>72</ele>
        <time>2022-05-20T09:53:00.000Z</time>
      </trkpt>
      <trkpt lat="48.26799" lon="-4.31011">
        <ele>75</ele>
        <time>2022-05-20T09:53:16.000Z</time>
      </trkpt>
      <trkpt lat="48.26779" lon="-4.30999">
        <ele>76</ele>
        <time>2022-05-20T09:53:31.000Z</time>
      </trkpt>
      <trkpt lat="48.26761" lon="-4.30988">
        <ele>77</ele>
        <time>2022-05-20T09:53:45.000Z</time>
      </trkpt>
      <trkpt lat="48.26736" lon="-4.30975">
        <ele>81</ele>
        <time>2022-05-20T09:54:01.000Z</time>
      </trkpt>
      <trkpt lat="48.26706" lon="-4.3096">
        <ele>86</ele>
        <time>2022-05-20T09:54:19.000Z</time>
      </trkpt>
      <trkpt lat="48.26683" lon="-4.30946">
        <ele>88</ele>
        <time>2022-05-20T09:54:35.000Z</time>
      </trkpt>
      <trkpt lat="48.26655" lon="-4.30929">
        <ele>91</ele>
        <time>2022-05-20T09:54:50.000Z</time>
      </trkpt>
      <trkpt lat="48.26623" lon="-4.30909">
        <ele>92</ele>
        <time>2022-05-20T09:55:05.000Z</time>
      </trkpt>
      <trkpt lat="48.26591" lon="-4.30875">
        <ele>94</ele>
        <time>2022-05-20T09:55:20.000Z</time>
      </trkpt>
      <trkpt lat="48.26587" lon="-4.30872">
        <ele>94</ele>
        <time>2022-05-20T09:55:22.000Z</time>
      </trkpt>
      <trkpt lat="48.26563" lon="-4.30846">
        <ele>93</ele>
        <time>2022-05-20T09:55:35.000Z</time>
      </trkpt>
      <trkpt lat="48.26562" lon="-4.30843">
        <ele>93</ele>
        <time>2022-05-20T09:55:36.000Z</time>
      </trkpt>
      <trkpt lat="48.26561" lon="-4.30838">
        <ele>93</ele>
        <time>2022-05-20T09:55:37.000Z</time>
      </trkpt>
      <trkpt lat="48.26561" lon="-4.30834">
        <ele>93</ele>
        <time>2022-05-20T09:55:38.000Z</time>
      </trkpt>
      <trkpt lat="48.26562" lon="-4.30828">
        <ele>93</ele>
        <time>2022-05-20T09:55:39.000Z</time>
      </trkpt>
      <trkpt lat="48.26562" lon="-4.30821">
        <ele>92</ele>
        <time>2022-05-20T09:55:40.000Z</time>
      </trkpt>
      <trkpt lat="48.26576" lon="-4.30725">
        <ele>89</ele>
        <time>2022-05-20T09:55:53.000Z</time>
      </trkpt>
      <trkpt lat="48.26598" lon="-4.30626">
        <ele>93</ele>
        <time>2022-05-20T09:56:11.000Z</time>
      </trkpt>
      <trkpt lat="48.26598" lon="-4.30596">
        <ele>94</ele>
        <time>2022-05-20T09:56:18.000Z</time>
      </trkpt>
      <trkpt lat="48.26595" lon="-4.30594">
        <ele>94</ele>
        <time>2022-05-20T09:56:19.000Z</time>
      </trkpt>
      <trkpt lat="48.26556" lon="-4.30563">
        <ele>98</ele>
        <time>2022-05-20T09:56:34.000Z</time>
      </trkpt>
      <trkpt lat="48.26518" lon="-4.30533">
        <ele>101</ele>
        <time>2022-05-20T09:56:50.000Z</time>
      </trkpt>
      <trkpt lat="48.26474" lon="-4.30501">
        <ele>103</ele>
        <time>2022-05-20T09:57:07.000Z</time>
      </trkpt>
      <trkpt lat="48.26439" lon="-4.30474">
        <ele>104</ele>
        <time>2022-05-20T09:57:22.000Z</time>
      </trkpt>
      <trkpt lat="48.26434" lon="-4.30471">
        <ele>105</ele>
        <time>2022-05-20T09:57:25.000Z</time>
      </trkpt>
      <trkpt lat="48.26432" lon="-4.30473">
        <ele>105</ele>
        <time>2022-05-20T09:57:26.000Z</time>
      </trkpt>
      <trkpt lat="48.26429" lon="-4.30475">
        <ele>105</ele>
        <time>2022-05-20T09:57:27.000Z</time>
      </trkpt>
      <trkpt lat="48.26397" lon="-4.30513">
        <ele>105</ele>
        <time>2022-05-20T09:57:41.000Z</time>
      </trkpt>
      <trkpt lat="48.26394" lon="-4.30514">
        <ele>105</ele>
        <time>2022-05-20T09:57:42.000Z</time>
      </trkpt>
      <trkpt lat="48.26392" lon="-4.30512">
        <ele>105</ele>
        <time>2022-05-20T09:57:43.000Z</time>
      </trkpt>
      <trkpt lat="48.26389" lon="-4.3051">
        <ele>105</ele>
        <time>2022-05-20T09:57:44.000Z</time>
      </trkpt>
      <trkpt lat="48.26387" lon="-4.30508">
        <ele>105</ele>
        <time>2022-05-20T09:57:45.000Z</time>
      </trkpt>
      <trkpt lat="48.26385" lon="-4.30504">
        <ele>105</ele>
        <time>2022-05-20T09:57:46.000Z</time>
      </trkpt>
      <trkpt lat="48.26384" lon="-4.305">
        <ele>105</ele>
        <time>2022-05-20T09:57:47.000Z</time>
      </trkpt>
      <trkpt lat="48.26385" lon="-4.30494">
        <ele>105</ele>
        <time>2022-05-20T09:57:48.000Z</time>
      </trkpt>
      <trkpt lat="48.26384" lon="-4.30484">
        <ele>106</ele>
        <time>2022-05-20T09:57:50.000Z</time>
      </trkpt>
      <trkpt lat="48.26382" lon="-4.3048">
        <ele>106</ele>
        <time>2022-05-20T09:57:51.000Z</time>
      </trkpt>
      <trkpt lat="48.2638" lon="-4.30476">
        <ele>106</ele>
        <time>2022-05-20T09:57:52.000Z</time>
      </trkpt>
      <trkpt lat="48.26377" lon="-4.30473">
        <ele>106</ele>
        <time>2022-05-20T09:57:53.000Z</time>
      </trkpt>
      <trkpt lat="48.26374" lon="-4.30471">
        <ele>106</ele>
        <time>2022-05-20T09:57:54.000Z</time>
      </trkpt>
      <trkpt lat="48.26324" lon="-4.30443">
        <ele>108</ele>
        <time>2022-05-20T09:58:09.000Z</time>
      </trkpt>
      <trkpt lat="48.26272" lon="-4.30421">
        <ele>110</ele>
        <time>2022-05-20T09:58:24.000Z</time>
      </trkpt>
      <trkpt lat="48.26207" lon="-4.30399">
        <ele>111</ele>
        <time>2022-05-20T09:58:42.000Z</time>
      </trkpt>
      <trkpt lat="48.26128" lon="-4.30374">
        <ele>112</ele>
        <time>2022-05-20T09:59:00.000Z</time>
      </trkpt>
      <trkpt lat="48.26047" lon="-4.30359">
        <ele>110</ele>
        <time>2022-05-20T09:59:17.000Z</time>
      </trkpt>
      <trkpt lat="48.25961" lon="-4.30345">
        <ele>111</ele>
        <time>2022-05-20T09:59:35.000Z</time>
      </trkpt>
      <trkpt lat="48.25869" lon="-4.30347">
        <ele>110</ele>
        <time>2022-05-20T09:59:54.000Z</time>
      </trkpt>
      <trkpt lat="48.25798" lon="-4.30364">
        <ele>108</ele>
        <time>2022-05-20T10:00:08.000Z</time>
      </trkpt>
      <trkpt lat="48.25767" lon="-4.30376">
        <ele>106</ele>
        <time>2022-05-20T10:00:13.000Z</time>
      </trkpt>
      <trkpt lat="48.25761" lon="-4.30379">
        <ele>106</ele>
        <time>2022-05-20T10:00:14.000Z</time>
      </trkpt>
      <trkpt lat="48.25734" lon="-4.30392">
        <ele>105</ele>
        <time>2022-05-20T10:00:18.000Z</time>
      </trkpt>
      <trkpt lat="48.25728" lon="-4.30398">
        <ele>104</ele>
        <time>2022-05-20T10:00:19.000Z</time>
      </trkpt>
      <trkpt lat="48.25724" lon="-4.30408">
        <ele>104</ele>
        <time>2022-05-20T10:00:20.000Z</time>
      </trkpt>
      <trkpt lat="48.25723" lon="-4.30418">
        <ele>104</ele>
        <time>2022-05-20T10:00:21.000Z</time>
      </trkpt>
      <trkpt lat="48.25722" lon="-4.30429">
        <ele>103</ele>
        <time>2022-05-20T10:00:22.000Z</time>
      </trkpt>
      <trkpt lat="48.25723" lon="-4.30438">
        <ele>104</ele>
        <time>2022-05-20T10:00:23.000Z</time>
      </trkpt>
      <trkpt lat="48.25723" lon="-4.30466">
        <ele>104</ele>
        <time>2022-05-20T10:00:26.000Z</time>
      </trkpt>
      <trkpt lat="48.25723" lon="-4.30474">
        <ele>104</ele>
        <time>2022-05-20T10:00:27.000Z</time>
      </trkpt>
      <trkpt lat="48.25723" lon="-4.30483">
        <ele>104</ele>
        <time>2022-05-20T10:00:28.000Z</time>
      </trkpt>
      <trkpt lat="48.25723" lon="-4.30625">
        <ele>103</ele>
        <time>2022-05-20T10:00:44.000Z</time>
      </trkpt>
      <trkpt lat="48.25723" lon="-4.3068">
        <ele>102</ele>
        <time>2022-05-20T10:00:51.000Z</time>
      </trkpt>
      <trkpt lat="48.25721" lon="-4.30687">
        <ele>102</ele>
        <time>2022-05-20T10:00:52.000Z</time>
      </trkpt>
      <trkpt lat="48.25717" lon="-4.30692">
        <ele>102</ele>
        <time>2022-05-20T10:00:53.000Z</time>
      </trkpt>
      <trkpt lat="48.25711" lon="-4.30695">
        <ele>102</ele>
        <time>2022-05-20T10:00:54.000Z</time>
      </trkpt>
      <trkpt lat="48.25705" lon="-4.30695">
        <ele>101</ele>
        <time>2022-05-20T10:00:55.000Z</time>
      </trkpt>
      <trkpt lat="48.25699" lon="-4.30695">
        <ele>101</ele>
        <time>2022-05-20T10:00:56.000Z</time>
      </trkpt>
      <trkpt lat="48.25692" lon="-4.30694">
        <ele>100</ele>
        <time>2022-05-20T10:00:57.000Z</time>
      </trkpt>
      <trkpt lat="48.25591" lon="-4.30685">
        <ele>94</ele>
        <time>2022-05-20T10:01:11.000Z</time>
      </trkpt>
      <trkpt lat="48.25544" lon="-4.30683">
        <ele>88</ele>
        <time>2022-05-20T10:01:19.000Z</time>
      </trkpt>
      <trkpt lat="48.25542" lon="-4.30686">
        <ele>87</ele>
        <time>2022-05-20T10:01:20.000Z</time>
      </trkpt>
      <trkpt lat="48.25541" lon="-4.30691">
        <ele>87</ele>
        <time>2022-05-20T10:01:21.000Z</time>
      </trkpt>
      <trkpt lat="48.25542" lon="-4.30696">
        <ele>87</ele>
        <time>2022-05-20T10:01:22.000Z</time>
      </trkpt>
      <trkpt lat="48.25542" lon="-4.30702">
        <ele>86</ele>
        <time>2022-05-20T10:01:23.000Z</time>
      </trkpt>
      <trkpt lat="48.25543" lon="-4.30708">
        <ele>86</ele>
        <time>2022-05-20T10:01:24.000Z</time>
      </trkpt>
      <trkpt lat="48.25544" lon="-4.30715">
        <ele>86</ele>
        <time>2022-05-20T10:01:25.000Z</time>
      </trkpt>
      <trkpt lat="48.25548" lon="-4.30749">
        <ele>85</ele>
        <time>2022-05-20T10:01:30.000Z</time>
      </trkpt>
      <trkpt lat="48.2555" lon="-4.30763">
        <ele>85</ele>
        <time>2022-05-20T10:01:32.000Z</time>
      </trkpt>
      <trkpt lat="48.2555" lon="-4.3077">
        <ele>85</ele>
        <time>2022-05-20T10:01:33.000Z</time>
      </trkpt>
      <trkpt lat="48.25549" lon="-4.30777">
        <ele>85</ele>
        <time>2022-05-20T10:01:34.000Z</time>
      </trkpt>
      <trkpt lat="48.25547" lon="-4.30784">
        <ele>84</ele>
        <time>2022-05-20T10:01:35.000Z</time>
      </trkpt>
      <trkpt lat="48.25544" lon="-4.30789">
        <ele>84</ele>
        <time>2022-05-20T10:01:36.000Z</time>
      </trkpt>
      <trkpt lat="48.25541" lon="-4.30794">
        <ele>84</ele>
        <time>2022-05-20T10:01:37.000Z</time>
      </trkpt>
      <trkpt lat="48.25537" lon="-4.30797">
        <ele>85</ele>
        <time>2022-05-20T10:01:38.000Z</time>
      </trkpt>
      <trkpt lat="48.25532" lon="-4.308">
        <ele>85</ele>
        <time>2022-05-20T10:01:39.000Z</time>
      </trkpt>
      <trkpt lat="48.25463" lon="-4.3086">
        <ele>85</ele>
        <time>2022-05-20T10:01:50.000Z</time>
      </trkpt>
      <trkpt lat="48.2545" lon="-4.30873">
        <ele>84</ele>
        <time>2022-05-20T10:01:52.000Z</time>
      </trkpt>
      <trkpt lat="48.25444" lon="-4.30882">
        <ele>84</ele>
        <time>2022-05-20T10:01:53.000Z</time>
      </trkpt>
      <trkpt lat="48.25442" lon="-4.30892">
        <ele>84</ele>
        <time>2022-05-20T10:01:54.000Z</time>
      </trkpt>
      <trkpt lat="48.25441" lon="-4.30903">
        <ele>84</ele>
        <time>2022-05-20T10:01:55.000Z</time>
      </trkpt>
      <trkpt lat="48.2544" lon="-4.30913">
        <ele>83</ele>
        <time>2022-05-20T10:01:56.000Z</time>
      </trkpt>
      <trkpt lat="48.25439" lon="-4.30982">
        <ele>80</ele>
        <time>2022-05-20T10:02:03.000Z</time>
      </trkpt>
      <trkpt lat="48.25437" lon="-4.30989">
        <ele>79</ele>
        <time>2022-05-20T10:02:04.000Z</time>
      </trkpt>
      <trkpt lat="48.25433" lon="-4.30995">
        <ele>79</ele>
        <time>2022-05-20T10:02:05.000Z</time>
      </trkpt>
      <trkpt lat="48.25428" lon="-4.30999">
        <ele>78</ele>
        <time>2022-05-20T10:02:06.000Z</time>
      </trkpt>
      <trkpt lat="48.25423" lon="-4.31001">
        <ele>78</ele>
        <time>2022-05-20T10:02:07.000Z</time>
      </trkpt>
      <trkpt lat="48.25418" lon="-4.31002">
        <ele>77</ele>
        <time>2022-05-20T10:02:08.000Z</time>
      </trkpt>
      <trkpt lat="48.25412" lon="-4.31002">
        <ele>77</ele>
        <time>2022-05-20T10:02:09.000Z</time>
      </trkpt>
      <trkpt lat="48.25356" lon="-4.31013">
        <ele>74</ele>
        <time>2022-05-20T10:02:19.000Z</time>
      </trkpt>
      <trkpt lat="48.25287" lon="-4.31036">
        <ele>73</ele>
        <time>2022-05-20T10:02:30.000Z</time>
      </trkpt>
      <trkpt lat="48.25234" lon="-4.31057">
        <ele>71</ele>
        <time>2022-05-20T10:02:38.000Z</time>
      </trkpt>
      <trkpt lat="48.25228" lon="-4.31059">
        <ele>71</ele>
        <time>2022-05-20T10:02:39.000Z</time>
      </trkpt>
      <trkpt lat="48.25222" lon="-4.31061">
        <ele>71</ele>
        <time>2022-05-20T10:02:40.000Z</time>
      </trkpt>
      <trkpt lat="48.25162" lon="-4.31083">
        <ele>69</ele>
        <time>2022-05-20T10:02:49.000Z</time>
      </trkpt>
      <trkpt lat="48.25155" lon="-4.31085">
        <ele>69</ele>
        <time>2022-05-20T10:02:50.000Z</time>
      </trkpt>
      <trkpt lat="48.25109" lon="-4.31102">
        <ele>70</ele>
        <time>2022-05-20T10:02:58.000Z</time>
      </trkpt>
      <trkpt lat="48.25104" lon="-4.31104">
        <ele>71</ele>
        <time>2022-05-20T10:02:59.000Z</time>
      </trkpt>
      <trkpt lat="48.25099" lon="-4.31106">
        <ele>71</ele>
        <time>2022-05-20T10:03:00.000Z</time>
      </trkpt>
      <trkpt lat="48.25033" lon="-4.31134">
        <ele>75</ele>
        <time>2022-05-20T10:03:12.000Z</time>
      </trkpt>
      <trkpt lat="48.24973" lon="-4.31158">
        <ele>77</ele>
        <time>2022-05-20T10:03:22.000Z</time>
      </trkpt>
      <trkpt lat="48.24906" lon="-4.31191">
        <ele>74</ele>
        <time>2022-05-20T10:03:34.000Z</time>
      </trkpt>
      <trkpt lat="48.24857" lon="-4.31216">
        <ele>70</ele>
        <time>2022-05-20T10:03:46.000Z</time>
      </trkpt>
      <trkpt lat="48.24856" lon="-4.3122">
        <ele>70</ele>
        <time>2022-05-20T10:03:47.000Z</time>
      </trkpt>
      <trkpt lat="48.24856" lon="-4.31224">
        <ele>70</ele>
        <time>2022-05-20T10:03:48.000Z</time>
      </trkpt>
      <trkpt lat="48.24857" lon="-4.31228">
        <ele>70</ele>
        <time>2022-05-20T10:03:49.000Z</time>
      </trkpt>
      <trkpt lat="48.24858" lon="-4.31232">
        <ele>70</ele>
        <time>2022-05-20T10:03:50.000Z</time>
      </trkpt>
      <trkpt lat="48.2486" lon="-4.31237">
        <ele>69</ele>
        <time>2022-05-20T10:03:51.000Z</time>
      </trkpt>
      <trkpt lat="48.24874" lon="-4.31289">
        <ele>70</ele>
        <time>2022-05-20T10:04:02.000Z</time>
      </trkpt>
      <trkpt lat="48.24883" lon="-4.31355">
        <ele>71</ele>
        <time>2022-05-20T10:04:13.000Z</time>
      </trkpt>
      <trkpt lat="48.24883" lon="-4.31361">
        <ele>71</ele>
        <time>2022-05-20T10:04:14.000Z</time>
      </trkpt>
      <trkpt lat="48.24884" lon="-4.31368">
        <ele>71</ele>
        <time>2022-05-20T10:04:15.000Z</time>
      </trkpt>
      <trkpt lat="48.24884" lon="-4.31373">
        <ele>71</ele>
        <time>2022-05-20T10:04:16.000Z</time>
      </trkpt>
      <trkpt lat="48.24883" lon="-4.31379">
        <ele>71</ele>
        <time>2022-05-20T10:04:17.000Z</time>
      </trkpt>
      <trkpt lat="48.24883" lon="-4.31384">
        <ele>71</ele>
        <time>2022-05-20T10:04:18.000Z</time>
      </trkpt>
      <trkpt lat="48.24883" lon="-4.3139">
        <ele>71</ele>
        <time>2022-05-20T10:04:19.000Z</time>
      </trkpt>
      <trkpt lat="48.24883" lon="-4.31395">
        <ele>71</ele>
        <time>2022-05-20T10:04:20.000Z</time>
      </trkpt>
      <trkpt lat="48.24886" lon="-4.31422">
        <ele>72</ele>
        <time>2022-05-20T10:04:25.000Z</time>
      </trkpt>
      <trkpt lat="48.24885" lon="-4.31427">
        <ele>72</ele>
        <time>2022-05-20T10:04:26.000Z</time>
      </trkpt>
      <trkpt lat="48.24883" lon="-4.3143">
        <ele>73</ele>
        <time>2022-05-20T10:04:27.000Z</time>
      </trkpt>
      <trkpt lat="48.24881" lon="-4.31431">
        <ele>73</ele>
        <time>2022-05-20T10:04:28.000Z</time>
      </trkpt>
      <trkpt lat="48.2488" lon="-4.31434">
        <ele>74</ele>
        <time>2022-05-20T10:04:29.000Z</time>
      </trkpt>
      <trkpt lat="48.24878" lon="-4.31435">
        <ele>74</ele>
        <time>2022-05-20T10:04:30.000Z</time>
      </trkpt>
      <trkpt lat="48.24876" lon="-4.31436">
        <ele>75</ele>
        <time>2022-05-20T10:04:31.000Z</time>
      </trkpt>
      <trkpt lat="48.24836" lon="-4.31458">
        <ele>73</ele>
        <time>2022-05-20T10:04:47.000Z</time>
      </trkpt>
      <trkpt lat="48.24792" lon="-4.31465">
        <ele>71</ele>
        <time>2022-05-20T10:05:06.000Z</time>
      </trkpt>
      <trkpt lat="48.24754" lon="-4.31465">
        <ele>71</ele>
        <time>2022-05-20T10:05:22.000Z</time>
      </trkpt>
      <trkpt lat="48.24716" lon="-4.31476">
        <ele>72</ele>
        <time>2022-05-20T10:05:37.000Z</time>
      </trkpt>
      <trkpt lat="48.24715" lon="-4.31475">
        <ele>72</ele>
        <time>2022-05-20T10:05:38.000Z</time>
      </trkpt>
      <trkpt lat="48.2471" lon="-4.31471">
        <ele>72</ele>
        <time>2022-05-20T10:05:41.000Z</time>
      </trkpt>
      <trkpt lat="48.24709" lon="-4.31468">
        <ele>72</ele>
        <time>2022-05-20T10:05:42.000Z</time>
      </trkpt>
      <trkpt lat="48.24709" lon="-4.31465">
        <ele>72</ele>
        <time>2022-05-20T10:05:43.000Z</time>
      </trkpt>
      <trkpt lat="48.24709" lon="-4.31462">
        <ele>72</ele>
        <time>2022-05-20T10:05:44.000Z</time>
      </trkpt>
      <trkpt lat="48.2471" lon="-4.31459">
        <ele>72</ele>
        <time>2022-05-20T10:05:45.000Z</time>
      </trkpt>
      <trkpt lat="48.24712" lon="-4.31452">
        <ele>72</ele>
        <time>2022-05-20T10:05:47.000Z</time>
      </trkpt>
      <trkpt lat="48.24723" lon="-4.3141">
        <ele>72</ele>
        <time>2022-05-20T10:05:58.000Z</time>
      </trkpt>
      <trkpt lat="48.24724" lon="-4.314">
        <ele>70</ele>
        <time>2022-05-20T10:06:01.000Z</time>
      </trkpt>
      <trkpt lat="48.24698" lon="-4.3138">
        <ele>71</ele>
        <time>2022-05-20T10:06:13.000Z</time>
      </trkpt>
      <trkpt lat="48.24689" lon="-4.31378">
        <ele>71</ele>
        <time>2022-05-20T10:06:18.000Z</time>
      </trkpt>
      <trkpt lat="48.24688" lon="-4.31375">
        <ele>71</ele>
        <time>2022-05-20T10:06:19.000Z</time>
      </trkpt>
      <trkpt lat="48.24688" lon="-4.31372">
        <ele>71</ele>
        <time>2022-05-20T10:06:20.000Z</time>
      </trkpt>
      <trkpt lat="48.24692" lon="-4.31333">
        <ele>71</ele>
        <time>2022-05-20T10:06:28.000Z</time>
      </trkpt>
      <trkpt lat="48.24693" lon="-4.31326">
        <ele>70</ele>
        <time>2022-05-20T10:06:29.000Z</time>
      </trkpt>
      <trkpt lat="48.24695" lon="-4.31312">
        <ele>70</ele>
        <time>2022-05-20T10:06:31.000Z</time>
      </trkpt>
      <trkpt lat="48.24716" lon="-4.31191">
        <ele>69</ele>
        <time>2022-05-20T10:06:46.000Z</time>
      </trkpt>
      <trkpt lat="48.24717" lon="-4.31149">
        <ele>68</ele>
        <time>2022-05-20T10:06:52.000Z</time>
      </trkpt>
      <trkpt lat="48.24722" lon="-4.31103">
        <ele>67</ele>
        <time>2022-05-20T10:06:59.000Z</time>
      </trkpt>
      <trkpt lat="48.24723" lon="-4.31096">
        <ele>67</ele>
        <time>2022-05-20T10:07:00.000Z</time>
      </trkpt>
      <trkpt lat="48.24725" lon="-4.31082">
        <ele>66</ele>
        <time>2022-05-20T10:07:02.000Z</time>
      </trkpt>
      <trkpt lat="48.24729" lon="-4.31067">
        <ele>66</ele>
        <time>2022-05-20T10:07:04.000Z</time>
      </trkpt>
      <trkpt lat="48.24743" lon="-4.30956">
        <ele>63</ele>
        <time>2022-05-20T10:07:16.000Z</time>
      </trkpt>
      <trkpt lat="48.24744" lon="-4.30936">
        <ele>63</ele>
        <time>2022-05-20T10:07:18.000Z</time>
      </trkpt>
      <trkpt lat="48.24751" lon="-4.30895">
        <ele>62</ele>
        <time>2022-05-20T10:07:22.000Z</time>
      </trkpt>
      <trkpt lat="48.24784" lon="-4.30787">
        <ele>62</ele>
        <time>2022-05-20T10:07:35.000Z</time>
      </trkpt>
      <trkpt lat="48.24798" lon="-4.30683">
        <ele>66</ele>
        <time>2022-05-20T10:07:49.000Z</time>
      </trkpt>
      <trkpt lat="48.24806" lon="-4.3058">
        <ele>69</ele>
        <time>2022-05-20T10:08:05.000Z</time>
      </trkpt>
      <trkpt lat="48.24812" lon="-4.30485">
        <ele>72</ele>
        <time>2022-05-20T10:08:22.000Z</time>
      </trkpt>
      <trkpt lat="48.24815" lon="-4.30394">
        <ele>75</ele>
        <time>2022-05-20T10:08:39.000Z</time>
      </trkpt>
      <trkpt lat="48.2481" lon="-4.30294">
        <ele>75</ele>
        <time>2022-05-20T10:08:58.000Z</time>
      </trkpt>
      <trkpt lat="48.24805" lon="-4.30255">
        <ele>74</ele>
        <time>2022-05-20T10:09:06.000Z</time>
      </trkpt>
      <trkpt lat="48.24802" lon="-4.30252">
        <ele>74</ele>
        <time>2022-05-20T10:09:07.000Z</time>
      </trkpt>
      <trkpt lat="48.24798" lon="-4.30249">
        <ele>74</ele>
        <time>2022-05-20T10:09:08.000Z</time>
      </trkpt>
      <trkpt lat="48.24794" lon="-4.30248">
        <ele>74</ele>
        <time>2022-05-20T10:09:09.000Z</time>
      </trkpt>
      <trkpt lat="48.24789" lon="-4.30247">
        <ele>74</ele>
        <time>2022-05-20T10:09:10.000Z</time>
      </trkpt>
      <trkpt lat="48.24784" lon="-4.30246">
        <ele>73</ele>
        <time>2022-05-20T10:09:11.000Z</time>
      </trkpt>
      <trkpt lat="48.24774" lon="-4.30242">
        <ele>73</ele>
        <time>2022-05-20T10:09:13.000Z</time>
      </trkpt>
      <trkpt lat="48.24701" lon="-4.30237">
        <ele>69</ele>
        <time>2022-05-20T10:09:25.000Z</time>
      </trkpt>
      <trkpt lat="48.2468" lon="-4.30238">
        <ele>68</ele>
        <time>2022-05-20T10:09:28.000Z</time>
      </trkpt>
      <trkpt lat="48.24673" lon="-4.30236">
        <ele>68</ele>
        <time>2022-05-20T10:09:29.000Z</time>
      </trkpt>
      <trkpt lat="48.24667" lon="-4.30233">
        <ele>68</ele>
        <time>2022-05-20T10:09:30.000Z</time>
      </trkpt>
      <trkpt lat="48.24661" lon="-4.30229">
        <ele>68</ele>
        <time>2022-05-20T10:09:31.000Z</time>
      </trkpt>
      <trkpt lat="48.24656" lon="-4.30225">
        <ele>69</ele>
        <time>2022-05-20T10:09:32.000Z</time>
      </trkpt>
      <trkpt lat="48.24646" lon="-4.30218">
        <ele>68</ele>
        <time>2022-05-20T10:09:34.000Z</time>
      </trkpt>
      <trkpt lat="48.24641" lon="-4.30216">
        <ele>68</ele>
        <time>2022-05-20T10:09:35.000Z</time>
      </trkpt>
      <trkpt lat="48.24636" lon="-4.30215">
        <ele>68</ele>
        <time>2022-05-20T10:09:36.000Z</time>
      </trkpt>
      <trkpt lat="48.24561" lon="-4.30208">
        <ele>72</ele>
        <time>2022-05-20T10:09:51.000Z</time>
      </trkpt>
      <trkpt lat="48.2452" lon="-4.30205">
        <ele>74</ele>
        <time>2022-05-20T10:10:03.000Z</time>
      </trkpt>
      <trkpt lat="48.24477" lon="-4.30201">
        <ele>75</ele>
        <time>2022-05-20T10:10:15.000Z</time>
      </trkpt>
      <trkpt lat="48.24431" lon="-4.30197">
        <ele>78</ele>
        <time>2022-05-20T10:10:28.000Z</time>
      </trkpt>
      <trkpt lat="48.24428" lon="-4.30196">
        <ele>78</ele>
        <time>2022-05-20T10:10:29.000Z</time>
      </trkpt>
      <trkpt lat="48.24426" lon="-4.30193">
        <ele>79</ele>
        <time>2022-05-20T10:10:30.000Z</time>
      </trkpt>
      <trkpt lat="48.24423" lon="-4.3019">
        <ele>79</ele>
        <time>2022-05-20T10:10:31.000Z</time>
      </trkpt>
      <trkpt lat="48.24421" lon="-4.30186">
        <ele>79</ele>
        <time>2022-05-20T10:10:32.000Z</time>
      </trkpt>
      <trkpt lat="48.2442" lon="-4.30182">
        <ele>79</ele>
        <time>2022-05-20T10:10:33.000Z</time>
      </trkpt>
      <trkpt lat="48.24419" lon="-4.30177">
        <ele>79</ele>
        <time>2022-05-20T10:10:34.000Z</time>
      </trkpt>
      <trkpt lat="48.2441" lon="-4.301">
        <ele>78</ele>
        <time>2022-05-20T10:10:51.000Z</time>
      </trkpt>
      <trkpt lat="48.24387" lon="-4.30084">
        <ele>81</ele>
        <time>2022-05-20T10:11:03.000Z</time>
      </trkpt>
      <trkpt lat="48.24361" lon="-4.30076">
        <ele>84</ele>
        <time>2022-05-20T10:11:20.000Z</time>
      </trkpt>
      <trkpt lat="48.24337" lon="-4.30068">
        <ele>87</ele>
        <time>2022-05-20T10:11:35.000Z</time>
      </trkpt>
      <trkpt lat="48.24312" lon="-4.3006">
        <ele>91</ele>
        <time>2022-05-20T10:11:52.000Z</time>
      </trkpt>
      <trkpt lat="48.24285" lon="-4.3005">
        <ele>94</ele>
        <time>2022-05-20T10:12:09.000Z</time>
      </trkpt>
      <trkpt lat="48.24262" lon="-4.30042">
        <ele>97</ele>
        <time>2022-05-20T10:12:24.000Z</time>
      </trkpt>
      <trkpt lat="48.24238" lon="-4.30034">
        <ele>102</ele>
        <time>2022-05-20T10:12:41.000Z</time>
      </trkpt>
      <trkpt lat="48.24216" lon="-4.30026">
        <ele>105</ele>
        <time>2022-05-20T10:12:56.000Z</time>
      </trkpt>
      <trkpt lat="48.24192" lon="-4.30016">
        <ele>107</ele>
        <time>2022-05-20T10:13:11.000Z</time>
      </trkpt>
      <trkpt lat="48.24161" lon="-4.30003">
        <ele>110</ele>
        <time>2022-05-20T10:13:29.000Z</time>
      </trkpt>
      <trkpt lat="48.24136" lon="-4.29986">
        <ele>112</ele>
        <time>2022-05-20T10:13:44.000Z</time>
      </trkpt>
      <trkpt lat="48.24137" lon="-4.29943">
        <ele>110</ele>
        <time>2022-05-20T10:13:55.000Z</time>
      </trkpt>
      <trkpt lat="48.24143" lon="-4.29855">
        <ele>106</ele>
        <time>2022-05-20T10:14:10.000Z</time>
      </trkpt>
      <trkpt lat="48.24147" lon="-4.29825">
        <ele>105</ele>
        <time>2022-05-20T10:14:14.000Z</time>
      </trkpt>
      <trkpt lat="48.24149" lon="-4.29817">
        <ele>105</ele>
        <time>2022-05-20T10:14:15.000Z</time>
      </trkpt>
      <trkpt lat="48.24151" lon="-4.29809">
        <ele>105</ele>
        <time>2022-05-20T10:14:16.000Z</time>
      </trkpt>
      <trkpt lat="48.24154" lon="-4.298">
        <ele>104</ele>
        <time>2022-05-20T10:14:17.000Z</time>
      </trkpt>
      <trkpt lat="48.24157" lon="-4.29792">
        <ele>104</ele>
        <time>2022-05-20T10:14:18.000Z</time>
      </trkpt>
      <trkpt lat="48.24218" lon="-4.29664">
        <ele>99</ele>
        <time>2022-05-20T10:14:31.000Z</time>
      </trkpt>
      <trkpt lat="48.24273" lon="-4.29516">
        <ele>91</ele>
        <time>2022-05-20T10:14:42.000Z</time>
      </trkpt>
      <trkpt lat="48.24287" lon="-4.29461">
        <ele>89</ele>
        <time>2022-05-20T10:14:46.000Z</time>
      </trkpt>
      <trkpt lat="48.24288" lon="-4.29452">
        <ele>89</ele>
        <time>2022-05-20T10:14:47.000Z</time>
      </trkpt>
      <trkpt lat="48.24285" lon="-4.29445">
        <ele>89</ele>
        <time>2022-05-20T10:14:48.000Z</time>
      </trkpt>
      <trkpt lat="48.24282" lon="-4.29441">
        <ele>89</ele>
        <time>2022-05-20T10:14:49.000Z</time>
      </trkpt>
      <trkpt lat="48.24278" lon="-4.29438">
        <ele>88</ele>
        <time>2022-05-20T10:14:50.000Z</time>
      </trkpt>
      <trkpt lat="48.24274" lon="-4.29436">
        <ele>88</ele>
        <time>2022-05-20T10:14:51.000Z</time>
      </trkpt>
      <trkpt lat="48.24235" lon="-4.29405">
        <ele>87</ele>
        <time>2022-05-20T10:15:03.000Z</time>
      </trkpt>
      <trkpt lat="48.24209" lon="-4.29382">
        <ele>91</ele>
        <time>2022-05-20T10:15:15.000Z</time>
      </trkpt>
      <trkpt lat="48.24181" lon="-4.29354">
        <ele>97</ele>
        <time>2022-05-20T10:15:29.000Z</time>
      </trkpt>
      <trkpt lat="48.24164" lon="-4.29316">
        <ele>100</ele>
        <time>2022-05-20T10:15:45.000Z</time>
      </trkpt>
      <trkpt lat="48.24152" lon="-4.29281">
        <ele>102</ele>
        <time>2022-05-20T10:16:00.000Z</time>
      </trkpt>
      <trkpt lat="48.2413" lon="-4.29248">
        <ele>105</ele>
        <time>2022-05-20T10:16:16.000Z</time>
      </trkpt>
      <trkpt lat="48.24105" lon="-4.29222">
        <ele>106</ele>
        <time>2022-05-20T10:16:31.000Z</time>
      </trkpt>
      <trkpt lat="48.24083" lon="-4.29196">
        <ele>108</ele>
        <time>2022-05-20T10:16:46.000Z</time>
      </trkpt>
      <trkpt lat="48.24062" lon="-4.29174">
        <ele>112</ele>
        <time>2022-05-20T10:17:02.000Z</time>
      </trkpt>
      <trkpt lat="48.24043" lon="-4.29154">
        <ele>111</ele>
        <time>2022-05-20T10:17:16.000Z</time>
      </trkpt>
      <trkpt lat="48.24018" lon="-4.29129">
        <ele>113</ele>
        <time>2022-05-20T10:17:34.000Z</time>
      </trkpt>
      <trkpt lat="48.23994" lon="-4.29104">
        <ele>115</ele>
        <time>2022-05-20T10:17:50.000Z</time>
      </trkpt>
      <trkpt lat="48.23974" lon="-4.2908">
        <ele>119</ele>
        <time>2022-05-20T10:18:06.000Z</time>
      </trkpt>
      <trkpt lat="48.23955" lon="-4.29059">
        <ele>123</ele>
        <time>2022-05-20T10:18:21.000Z</time>
      </trkpt>
      <trkpt lat="48.23935" lon="-4.29034">
        <ele>128</ele>
        <time>2022-05-20T10:18:38.000Z</time>
      </trkpt>
      <trkpt lat="48.23911" lon="-4.29003">
        <ele>131</ele>
        <time>2022-05-20T10:18:56.000Z</time>
      </trkpt>
      <trkpt lat="48.23893" lon="-4.28981">
        <ele>134</ele>
        <time>2022-05-20T10:19:11.000Z</time>
      </trkpt>
      <trkpt lat="48.23876" lon="-4.28951">
        <ele>135</ele>
        <time>2022-05-20T10:19:24.000Z</time>
      </trkpt>
      <trkpt lat="48.23883" lon="-4.28898">
        <ele>137</ele>
        <time>2022-05-20T10:19:40.000Z</time>
      </trkpt>
      <trkpt lat="48.23893" lon="-4.28842">
        <ele>139</ele>
        <time>2022-05-20T10:19:55.000Z</time>
      </trkpt>
      <trkpt lat="48.239" lon="-4.28794">
        <ele>140</ele>
        <time>2022-05-20T10:20:09.000Z</time>
      </trkpt>
      <trkpt lat="48.23907" lon="-4.28743">
        <ele>141</ele>
        <time>2022-05-20T10:20:24.000Z</time>
      </trkpt>
      <trkpt lat="48.23919" lon="-4.28677">
        <ele>143</ele>
        <time>2022-05-20T10:20:38.000Z</time>
      </trkpt>
      <trkpt lat="48.23926" lon="-4.28633">
        <ele>146</ele>
        <time>2022-05-20T10:20:50.000Z</time>
      </trkpt>
      <trkpt lat="48.2393" lon="-4.28587">
        <ele>148</ele>
        <time>2022-05-20T10:21:03.000Z</time>
      </trkpt>
      <trkpt lat="48.23928" lon="-4.28585">
        <ele>148</ele>
        <time>2022-05-20T10:21:04.000Z</time>
      </trkpt>
      <trkpt lat="48.23927" lon="-4.28582">
        <ele>148</ele>
        <time>2022-05-20T10:21:05.000Z</time>
      </trkpt>
      <trkpt lat="48.23897" lon="-4.28572">
        <ele>150</ele>
        <time>2022-05-20T10:21:17.000Z</time>
      </trkpt>
      <trkpt lat="48.23867" lon="-4.28565">
        <ele>153</ele>
        <time>2022-05-20T10:21:29.000Z</time>
      </trkpt>
      <trkpt lat="48.23826" lon="-4.28557">
        <ele>154</ele>
        <time>2022-05-20T10:21:43.000Z</time>
      </trkpt>
      <trkpt lat="48.23778" lon="-4.28547">
        <ele>155</ele>
        <time>2022-05-20T10:21:56.000Z</time>
      </trkpt>
      <trkpt lat="48.23715" lon="-4.28536">
        <ele>156</ele>
        <time>2022-05-20T10:22:14.000Z</time>
      </trkpt>
      <trkpt lat="48.2368" lon="-4.28529">
        <ele>156</ele>
        <time>2022-05-20T10:22:27.000Z</time>
      </trkpt>
      <trkpt lat="48.23655" lon="-4.28524">
        <ele>159</ele>
        <time>2022-05-20T10:22:40.000Z</time>
      </trkpt>
      <trkpt lat="48.23624" lon="-4.28518">
        <ele>163</ele>
        <time>2022-05-20T10:22:56.000Z</time>
      </trkpt>
      <trkpt lat="48.236" lon="-4.28511">
        <ele>165</ele>
        <time>2022-05-20T10:23:09.000Z</time>
      </trkpt>
      <trkpt lat="48.2357" lon="-4.28507">
        <ele>165</ele>
        <time>2022-05-20T10:23:22.000Z</time>
      </trkpt>
      <trkpt lat="48.23547" lon="-4.28502">
        <ele>169</ele>
        <time>2022-05-20T10:23:33.000Z</time>
      </trkpt>
      <trkpt lat="48.23518" lon="-4.28496">
        <ele>170</ele>
        <time>2022-05-20T10:23:45.000Z</time>
      </trkpt>
      <trkpt lat="48.23487" lon="-4.28491">
        <ele>172</ele>
        <time>2022-05-20T10:23:57.000Z</time>
      </trkpt>
      <trkpt lat="48.23442" lon="-4.28485">
        <ele>171</ele>
        <time>2022-05-20T10:24:11.000Z</time>
      </trkpt>
      <trkpt lat="48.23396" lon="-4.28477">
        <ele>171</ele>
        <time>2022-05-20T10:24:24.000Z</time>
      </trkpt>
      <trkpt lat="48.2334" lon="-4.28467">
        <ele>171</ele>
        <time>2022-05-20T10:24:40.000Z</time>
      </trkpt>
      <trkpt lat="48.23289" lon="-4.28465">
        <ele>171</ele>
        <time>2022-05-20T10:24:55.000Z</time>
      </trkpt>
      <trkpt lat="48.2325" lon="-4.28481">
        <ele>173</ele>
        <time>2022-05-20T10:25:10.000Z</time>
      </trkpt>
      <trkpt lat="48.23207" lon="-4.2849">
        <ele>175</ele>
        <time>2022-05-20T10:25:24.000Z</time>
      </trkpt>
      <trkpt lat="48.23163" lon="-4.28482">
        <ele>178</ele>
        <time>2022-05-20T10:25:37.000Z</time>
      </trkpt>
      <trkpt lat="48.23123" lon="-4.28468">
        <ele>178</ele>
        <time>2022-05-20T10:25:51.000Z</time>
      </trkpt>
      <trkpt lat="48.2308" lon="-4.2845">
        <ele>178</ele>
        <time>2022-05-20T10:26:06.000Z</time>
      </trkpt>
      <trkpt lat="48.23073" lon="-4.28442">
        <ele>178</ele>
        <time>2022-05-20T10:26:10.000Z</time>
      </trkpt>
      <trkpt lat="48.23082" lon="-4.28384">
        <ele>178</ele>
        <time>2022-05-20T10:26:23.000Z</time>
      </trkpt>
      <trkpt lat="48.23076" lon="-4.28289">
        <ele>180</ele>
        <time>2022-05-20T10:26:41.000Z</time>
      </trkpt>
      <trkpt lat="48.23063" lon="-4.28212">
        <ele>181</ele>
        <time>2022-05-20T10:26:56.000Z</time>
      </trkpt>
      <trkpt lat="48.23051" lon="-4.2814">
        <ele>182</ele>
        <time>2022-05-20T10:27:10.000Z</time>
      </trkpt>
      <trkpt lat="48.23038" lon="-4.28104">
        <ele>183</ele>
        <time>2022-05-20T10:27:19.000Z</time>
      </trkpt>
      <trkpt lat="48.23037" lon="-4.28099">
        <ele>183</ele>
        <time>2022-05-20T10:27:20.000Z</time>
      </trkpt>
      <trkpt lat="48.23038" lon="-4.28094">
        <ele>183</ele>
        <time>2022-05-20T10:27:21.000Z</time>
      </trkpt>
      <trkpt lat="48.23039" lon="-4.28089">
        <ele>183</ele>
        <time>2022-05-20T10:27:22.000Z</time>
      </trkpt>
      <trkpt lat="48.2304" lon="-4.28084">
        <ele>183</ele>
        <time>2022-05-20T10:27:23.000Z</time>
      </trkpt>
      <trkpt lat="48.23042" lon="-4.28079">
        <ele>183</ele>
        <time>2022-05-20T10:27:24.000Z</time>
      </trkpt>
      <trkpt lat="48.23043" lon="-4.28074">
        <ele>183</ele>
        <time>2022-05-20T10:27:25.000Z</time>
      </trkpt>
      <trkpt lat="48.23044" lon="-4.28068">
        <ele>184</ele>
        <time>2022-05-20T10:27:26.000Z</time>
      </trkpt>
      <trkpt lat="48.23053" lon="-4.27992">
        <ele>184</ele>
        <time>2022-05-20T10:27:39.000Z</time>
      </trkpt>
      <trkpt lat="48.23062" lon="-4.27897">
        <ele>183</ele>
        <time>2022-05-20T10:27:54.000Z</time>
      </trkpt>
      <trkpt lat="48.23064" lon="-4.27879">
        <ele>184</ele>
        <time>2022-05-20T10:27:57.000Z</time>
      </trkpt>
      <trkpt lat="48.23067" lon="-4.27866">
        <ele>183</ele>
        <time>2022-05-20T10:27:59.000Z</time>
      </trkpt>
      <trkpt lat="48.2308" lon="-4.27768">
        <ele>184</ele>
        <time>2022-05-20T10:28:12.000Z</time>
      </trkpt>
      <trkpt lat="48.2308" lon="-4.27761">
        <ele>184</ele>
        <time>2022-05-20T10:28:13.000Z</time>
      </trkpt>
      <trkpt lat="48.23095" lon="-4.27642">
        <ele>185</ele>
        <time>2022-05-20T10:28:29.000Z</time>
      </trkpt>
      <trkpt lat="48.23108" lon="-4.27541">
        <ele>185</ele>
        <time>2022-05-20T10:28:43.000Z</time>
      </trkpt>
      <trkpt lat="48.23122" lon="-4.27448">
        <ele>184</ele>
        <time>2022-05-20T10:28:58.000Z</time>
      </trkpt>
      <trkpt lat="48.23122" lon="-4.27397">
        <ele>184</ele>
        <time>2022-05-20T10:29:08.000Z</time>
      </trkpt>
      <trkpt lat="48.23115" lon="-4.27318">
        <ele>186</ele>
        <time>2022-05-20T10:29:23.000Z</time>
      </trkpt>
      <trkpt lat="48.23111" lon="-4.27229">
        <ele>187</ele>
        <time>2022-05-20T10:29:39.000Z</time>
      </trkpt>
      <trkpt lat="48.2312" lon="-4.27153">
        <ele>187</ele>
        <time>2022-05-20T10:29:53.000Z</time>
      </trkpt>
      <trkpt lat="48.23118" lon="-4.27076">
        <ele>187</ele>
        <time>2022-05-20T10:30:07.000Z</time>
      </trkpt>
      <trkpt lat="48.23111" lon="-4.27018">
        <ele>188</ele>
        <time>2022-05-20T10:30:19.000Z</time>
      </trkpt>
      <trkpt lat="48.23103" lon="-4.26965">
        <ele>189</ele>
        <time>2022-05-20T10:30:30.000Z</time>
      </trkpt>
      <trkpt lat="48.23085" lon="-4.26881">
        <ele>189</ele>
        <time>2022-05-20T10:30:44.000Z</time>
      </trkpt>
      <trkpt lat="48.23084" lon="-4.26874">
        <ele>189</ele>
        <time>2022-05-20T10:30:45.000Z</time>
      </trkpt>
      <trkpt lat="48.23083" lon="-4.26868">
        <ele>190</ele>
        <time>2022-05-20T10:30:46.000Z</time>
      </trkpt>
      <trkpt lat="48.23055" lon="-4.26801">
        <ele>190</ele>
        <time>2022-05-20T10:31:00.000Z</time>
      </trkpt>
      <trkpt lat="48.2303" lon="-4.26806">
        <ele>190</ele>
        <time>2022-05-20T10:31:10.000Z</time>
      </trkpt>
      <trkpt lat="48.22988" lon="-4.26826">
        <ele>189</ele>
        <time>2022-05-20T10:31:23.000Z</time>
      </trkpt>
      <trkpt lat="48.22975" lon="-4.26832">
        <ele>189</ele>
        <time>2022-05-20T10:31:33.000Z</time>
      </trkpt>
      <trkpt lat="48.22961" lon="-4.26838">
        <ele>189</ele>
        <time>2022-05-20T10:31:50.000Z</time>
      </trkpt>
      <trkpt lat="48.22918" lon="-4.26855">
        <ele>187</ele>
        <time>2022-05-20T10:32:03.000Z</time>
      </trkpt>
      <trkpt lat="48.22861" lon="-4.2688">
        <ele>186</ele>
        <time>2022-05-20T10:32:21.000Z</time>
      </trkpt>
      <trkpt lat="48.22827" lon="-4.26895">
        <ele>185</ele>
        <time>2022-05-20T10:32:31.000Z</time>
      </trkpt>
      <trkpt lat="48.22823" lon="-4.26893">
        <ele>184</ele>
        <time>2022-05-20T10:32:32.000Z</time>
      </trkpt>
      <trkpt lat="48.22821" lon="-4.26889">
        <ele>184</ele>
        <time>2022-05-20T10:32:33.000Z</time>
      </trkpt>
      <trkpt lat="48.2282" lon="-4.26883">
        <ele>184</ele>
        <time>2022-05-20T10:32:34.000Z</time>
      </trkpt>
      <trkpt lat="48.22822" lon="-4.26879">
        <ele>185</ele>
        <time>2022-05-20T10:32:35.000Z</time>
      </trkpt>
      <trkpt lat="48.22824" lon="-4.26875">
        <ele>185</ele>
        <time>2022-05-20T10:32:36.000Z</time>
      </trkpt>
      <trkpt lat="48.22826" lon="-4.26871">
        <ele>185</ele>
        <time>2022-05-20T10:32:37.000Z</time>
      </trkpt>
      <trkpt lat="48.22856" lon="-4.26798">
        <ele>187</ele>
        <time>2022-05-20T10:32:53.000Z</time>
      </trkpt>
      <trkpt lat="48.22882" lon="-4.26714">
        <ele>189</ele>
        <time>2022-05-20T10:33:08.000Z</time>
      </trkpt>
      <trkpt lat="48.22887" lon="-4.26703">
        <ele>189</ele>
        <time>2022-05-20T10:33:10.000Z</time>
      </trkpt>
      <trkpt lat="48.22908" lon="-4.26679">
        <ele>190</ele>
        <time>2022-05-20T10:33:17.000Z</time>
      </trkpt>
      <trkpt lat="48.23031" lon="-4.26604">
        <ele>197</ele>
        <time>2022-05-20T06:58:10.000Z</time>
      </trkpt>
      <trkpt lat="48.23033" lon="-4.26608">
        <ele>195</ele>
        <time>2022-05-20T06:58:25.000Z</time>
      </trkpt>
      <trkpt lat="48.23033" lon="-4.26607">
        <ele>194</ele>
        <time>2022-05-20T06:58:48.000Z</time>
      </trkpt>
      <trkpt lat="48.23035" lon="-4.2661">
        <ele>190</ele>
        <time>2022-05-20T06:59:24.000Z</time>
      </trkpt>
      <trkpt lat="48.23035" lon="-4.26609">
        <ele>185</ele>
        <time>2022-05-20T06:59:57.000Z</time>
      </trkpt>
      <trkpt lat="48.23034" lon="-4.26607">
        <ele>184</ele>
        <time>2022-05-20T07:00:35.000Z</time>
      </trkpt>
      <trkpt lat="48.23037" lon="-4.26608">
        <ele>185</ele>
        <time>2022-05-20T07:01:21.000Z</time>
      </trkpt>
      <trkpt lat="48.23038" lon="-4.26609">
        <ele>186</ele>
        <time>2022-05-20T07:02:02.000Z</time>
      </trkpt>
      <trkpt lat="48.23037" lon="-4.26608">
        <ele>189</ele>
        <time>2022-05-20T07:02:50.000Z</time>
      </trkpt>
      <trkpt lat="48.23041" lon="-4.2661">
        <ele>187</ele>
        <time>2022-05-20T07:04:14.000Z</time>
      </trkpt>
      <trkpt lat="48.2304" lon="-4.26609">
        <ele>189</ele>
        <time>2022-05-20T07:04:54.000Z</time>
      </trkpt>
      <trkpt lat="48.23038" lon="-4.2661">
        <ele>192</ele>
        <time>2022-05-20T07:05:28.000Z</time>
      </trkpt>
      <trkpt lat="48.23037" lon="-4.26611">
        <ele>193</ele>
        <time>2022-05-20T07:06:07.000Z</time>
      </trkpt>
      <trkpt lat="48.23036" lon="-4.26603">
        <ele>189</ele>
        <time>2022-05-20T07:06:28.000Z</time>
      </trkpt>
      <trkpt lat="48.23034" lon="-4.26605">
        <ele>191</ele>
        <time>2022-05-20T07:06:40.000Z</time>
      </trkpt>
      <trkpt lat="48.23033" lon="-4.26601">
        <ele>185</ele>
        <time>2022-05-20T07:06:54.000Z</time>
      </trkpt>
      <trkpt lat="48.23033" lon="-4.26598">
        <ele>186</ele>
        <time>2022-05-20T07:07:26.000Z</time>
      </trkpt>
      <trkpt lat="48.2303" lon="-4.26598">
        <ele>190</ele>
        <time>2022-05-20T07:08:00.000Z</time>
      </trkpt>
      <trkpt lat="48.23044" lon="-4.26601">
        <ele>190</ele>
        <time>2022-05-20T07:08:13.000Z</time>
      </trkpt>
      <trkpt lat="48.23058" lon="-4.26597">
        <ele>190</ele>
        <time>2022-05-20T07:08:21.000Z</time>
      </trkpt>
      <trkpt lat="48.2306" lon="-4.26597">
        <ele>190</ele>
        <time>2022-05-20T07:08:22.000Z</time>
      </trkpt>
      <trkpt lat="48.23063" lon="-4.26596">
        <ele>190</ele>
        <time>2022-05-20T07:08:23.000Z</time>
      </trkpt>
      <trkpt lat="48.23065" lon="-4.26594">
        <ele>189</ele>
        <time>2022-05-20T07:08:24.000Z</time>
      </trkpt>
      <trkpt lat="48.23068" lon="-4.26593">
        <ele>189</ele>
        <time>2022-05-20T07:08:25.000Z</time>
      </trkpt>
      <trkpt lat="48.23071" lon="-4.26592">
        <ele>189</ele>
        <time>2022-05-20T07:08:26.000Z</time>
      </trkpt>
      <trkpt lat="48.23075" lon="-4.26591">
        <ele>189</ele>
        <time>2022-05-20T07:08:27.000Z</time>
      </trkpt>
      <trkpt lat="48.23078" lon="-4.26591">
        <ele>189</ele>
        <time>2022-05-20T07:08:28.000Z</time>
      </trkpt>
      <trkpt lat="48.23097" lon="-4.26585">
        <ele>188</ele>
        <time>2022-05-20T07:08:33.000Z</time>
      </trkpt>
      <trkpt lat="48.23099" lon="-4.2658">
        <ele>188</ele>
        <time>2022-05-20T07:08:34.000Z</time>
      </trkpt>
      <trkpt lat="48.23101" lon="-4.26575">
        <ele>188</ele>
        <time>2022-05-20T07:08:35.000Z</time>
      </trkpt>
      <trkpt lat="48.23101" lon="-4.26571">
        <ele>188</ele>
        <time>2022-05-20T07:08:36.000Z</time>
      </trkpt>
      <trkpt lat="48.23101" lon="-4.26567">
        <ele>188</ele>
        <time>2022-05-20T07:08:37.000Z</time>
      </trkpt>
      <trkpt lat="48.2312" lon="-4.26528">
        <ele>186</ele>
        <time>2022-05-20T07:08:48.000Z</time>
      </trkpt>
      <trkpt lat="48.2313" lon="-4.2651">
        <ele>186</ele>
        <time>2022-05-20T07:08:52.000Z</time>
      </trkpt>
      <trkpt lat="48.23132" lon="-4.26504">
        <ele>186</ele>
        <time>2022-05-20T07:08:53.000Z</time>
      </trkpt>
      <trkpt lat="48.23132" lon="-4.26498">
        <ele>186</ele>
        <time>2022-05-20T07:08:54.000Z</time>
      </trkpt>
      <trkpt lat="48.23131" lon="-4.26492">
        <ele>186</ele>
        <time>2022-05-20T07:08:55.000Z</time>
      </trkpt>
      <trkpt lat="48.2313" lon="-4.26487">
        <ele>186</ele>
        <time>2022-05-20T07:08:56.000Z</time>
      </trkpt>
      <trkpt lat="48.23127" lon="-4.26482">
        <ele>186</ele>
        <time>2022-05-20T07:08:57.000Z</time>
      </trkpt>
      <trkpt lat="48.23125" lon="-4.26478">
        <ele>186</ele>
        <time>2022-05-20T07:08:58.000Z</time>
      </trkpt>
      <trkpt lat="48.23098" lon="-4.26426">
        <ele>186</ele>
        <time>2022-05-20T07:09:11.000Z</time>
      </trkpt>
      <trkpt lat="48.23083" lon="-4.26381">
        <ele>188</ele>
        <time>2022-05-20T07:09:22.000Z</time>
      </trkpt>
      <trkpt lat="48.23065" lon="-4.26326">
        <ele>190</ele>
        <time>2022-05-20T07:09:34.000Z</time>
      </trkpt>
      <trkpt lat="48.23048" lon="-4.26278">
        <ele>190</ele>
        <time>2022-05-20T07:09:45.000Z</time>
      </trkpt>
      <trkpt lat="48.23033" lon="-4.26211">
        <ele>190</ele>
        <time>2022-05-20T07:09:59.000Z</time>
      </trkpt>
      <trkpt lat="48.23027" lon="-4.26145">
        <ele>188</ele>
        <time>2022-05-20T07:10:12.000Z</time>
      </trkpt>
      <trkpt lat="48.23025" lon="-4.26117">
        <ele>187</ele>
        <time>2022-05-20T07:10:19.000Z</time>
      </trkpt>
      <trkpt lat="48.23025" lon="-4.26115">
        <ele>187</ele>
        <time>2022-05-20T07:10:20.000Z</time>
      </trkpt>
      <trkpt lat="48.23026" lon="-4.26112">
        <ele>187</ele>
        <time>2022-05-20T07:10:21.000Z</time>
      </trkpt>
      <trkpt lat="48.23026" lon="-4.2611">
        <ele>188</ele>
        <time>2022-05-20T07:10:22.000Z</time>
      </trkpt>
      <trkpt lat="48.23026" lon="-4.26107">
        <ele>188</ele>
        <time>2022-05-20T07:10:23.000Z</time>
      </trkpt>
      <trkpt lat="48.23026" lon="-4.26105">
        <ele>188</ele>
        <time>2022-05-20T07:10:24.000Z</time>
      </trkpt>
      <trkpt lat="48.23026" lon="-4.26103">
        <ele>188</ele>
        <time>2022-05-20T07:10:25.000Z</time>
      </trkpt>
      <trkpt lat="48.23026" lon="-4.26101">
        <ele>188</ele>
        <time>2022-05-20T07:10:26.000Z</time>
      </trkpt>
      <trkpt lat="48.23026" lon="-4.26097">
        <ele>188</ele>
        <time>2022-05-20T07:10:27.000Z</time>
      </trkpt>
      <trkpt lat="48.23026" lon="-4.26094">
        <ele>188</ele>
        <time>2022-05-20T07:10:28.000Z</time>
      </trkpt>
      <trkpt lat="48.23026" lon="-4.26092">
        <ele>188</ele>
        <time>2022-05-20T07:10:29.000Z</time>
      </trkpt>
      <trkpt lat="48.23027" lon="-4.26089">
        <ele>188</ele>
        <time>2022-05-20T07:10:30.000Z</time>
      </trkpt>
      <trkpt lat="48.23027" lon="-4.26086">
        <ele>188</ele>
        <time>2022-05-20T07:10:31.000Z</time>
      </trkpt>
      <trkpt lat="48.23027" lon="-4.26083">
        <ele>188</ele>
        <time>2022-05-20T07:10:32.000Z</time>
      </trkpt>
      <trkpt lat="48.23027" lon="-4.2608">
        <ele>188</ele>
        <time>2022-05-20T07:10:33.000Z</time>
      </trkpt>
      <trkpt lat="48.23025" lon="-4.26044">
        <ele>188</ele>
        <time>2022-05-20T07:10:46.000Z</time>
      </trkpt>
      <trkpt lat="48.23029" lon="-4.25998">
        <ele>184</ele>
        <time>2022-05-20T07:10:58.000Z</time>
      </trkpt>
      <trkpt lat="48.2303" lon="-4.25984">
        <ele>184</ele>
        <time>2022-05-20T07:11:04.000Z</time>
      </trkpt>
      <trkpt lat="48.2303" lon="-4.25981">
        <ele>183</ele>
        <time>2022-05-20T07:11:05.000Z</time>
      </trkpt>
      <trkpt lat="48.2303" lon="-4.25978">
        <ele>183</ele>
        <time>2022-05-20T07:11:06.000Z</time>
      </trkpt>
      <trkpt lat="48.23029" lon="-4.25946">
        <ele>180</ele>
        <time>2022-05-20T07:11:19.000Z</time>
      </trkpt>
      <trkpt lat="48.23028" lon="-4.25903">
        <ele>177</ele>
        <time>2022-05-20T07:11:32.000Z</time>
      </trkpt>
      <trkpt lat="48.23026" lon="-4.25885">
        <ele>177</ele>
        <time>2022-05-20T07:11:39.000Z</time>
      </trkpt>
      <trkpt lat="48.23023" lon="-4.25847">
        <ele>179</ele>
        <time>2022-05-20T07:11:51.000Z</time>
      </trkpt>
      <trkpt lat="48.2302" lon="-4.25803">
        <ele>180</ele>
        <time>2022-05-20T07:12:04.000Z</time>
      </trkpt>
      <trkpt lat="48.2302" lon="-4.25795">
        <ele>181</ele>
        <time>2022-05-20T07:12:29.000Z</time>
      </trkpt>
      <trkpt lat="48.23018" lon="-4.25794">
        <ele>183</ele>
        <time>2022-05-20T07:13:22.000Z</time>
      </trkpt>
      <trkpt lat="48.23018" lon="-4.25788">
        <ele>183</ele>
        <time>2022-05-20T07:13:38.000Z</time>
      </trkpt>
      <trkpt lat="48.23018" lon="-4.25786">
        <ele>183</ele>
        <time>2022-05-20T07:13:39.000Z</time>
      </trkpt>
      <trkpt lat="48.23017" lon="-4.25782">
        <ele>183</ele>
        <time>2022-05-20T07:13:40.000Z</time>
      </trkpt>
      <trkpt lat="48.23017" lon="-4.25778">
        <ele>183</ele>
        <time>2022-05-20T07:13:41.000Z</time>
      </trkpt>
      <trkpt lat="48.23016" lon="-4.25773">
        <ele>182</ele>
        <time>2022-05-20T07:13:42.000Z</time>
      </trkpt>
      <trkpt lat="48.23016" lon="-4.25767">
        <ele>182</ele>
        <time>2022-05-20T07:13:43.000Z</time>
      </trkpt>
      <trkpt lat="48.23016" lon="-4.25762">
        <ele>182</ele>
        <time>2022-05-20T07:13:44.000Z</time>
      </trkpt>
      <trkpt lat="48.23016" lon="-4.25757">
        <ele>181</ele>
        <time>2022-05-20T07:13:45.000Z</time>
      </trkpt>
      <trkpt lat="48.23015" lon="-4.25726">
        <ele>178</ele>
        <time>2022-05-20T07:13:52.000Z</time>
      </trkpt>
      <trkpt lat="48.23016" lon="-4.25723">
        <ele>178</ele>
        <time>2022-05-20T07:13:53.000Z</time>
      </trkpt>
      <trkpt lat="48.23018" lon="-4.2572">
        <ele>178</ele>
        <time>2022-05-20T07:13:54.000Z</time>
      </trkpt>
      <trkpt lat="48.23019" lon="-4.25718">
        <ele>177</ele>
        <time>2022-05-20T07:13:55.000Z</time>
      </trkpt>
      <trkpt lat="48.23021" lon="-4.25716">
        <ele>177</ele>
        <time>2022-05-20T07:13:56.000Z</time>
      </trkpt>
      <trkpt lat="48.23023" lon="-4.25714">
        <ele>176</ele>
        <time>2022-05-20T07:13:57.000Z</time>
      </trkpt>
      <trkpt lat="48.23025" lon="-4.25713">
        <ele>176</ele>
        <time>2022-05-20T07:13:58.000Z</time>
      </trkpt>
      <trkpt lat="48.23028" lon="-4.25712">
        <ele>175</ele>
        <time>2022-05-20T07:13:59.000Z</time>
      </trkpt>
      <trkpt lat="48.23032" lon="-4.2571">
        <ele>175</ele>
        <time>2022-05-20T07:14:00.000Z</time>
      </trkpt>
      <trkpt lat="48.23036" lon="-4.25709">
        <ele>174</ele>
        <time>2022-05-20T07:14:01.000Z</time>
      </trkpt>
      <trkpt lat="48.23049" lon="-4.25702">
        <ele>173</ele>
        <time>2022-05-20T07:14:04.000Z</time>
      </trkpt>
      <trkpt lat="48.23052" lon="-4.257">
        <ele>172</ele>
        <time>2022-05-20T07:14:05.000Z</time>
      </trkpt>
      <trkpt lat="48.23066" lon="-4.25678">
        <ele>171</ele>
        <time>2022-05-20T07:14:12.000Z</time>
      </trkpt>
      <trkpt lat="48.2307" lon="-4.25645">
        <ele>165</ele>
        <time>2022-05-20T07:14:22.000Z</time>
      </trkpt>
      <trkpt lat="48.23071" lon="-4.25642">
        <ele>164</ele>
        <time>2022-05-20T07:14:23.000Z</time>
      </trkpt>
      <trkpt lat="48.23069" lon="-4.25602">
        <ele>162</ele>
        <time>2022-05-20T07:14:32.000Z</time>
      </trkpt>
      <trkpt lat="48.2307" lon="-4.25599">
        <ele>162</ele>
        <time>2022-05-20T07:14:33.000Z</time>
      </trkpt>
      <trkpt lat="48.23072" lon="-4.25596">
        <ele>162</ele>
        <time>2022-05-20T07:14:34.000Z</time>
      </trkpt>
      <trkpt lat="48.23074" lon="-4.25594">
        <ele>161</ele>
        <time>2022-05-20T07:14:35.000Z</time>
      </trkpt>
      <trkpt lat="48.23077" lon="-4.25593">
        <ele>161</ele>
        <time>2022-05-20T07:14:36.000Z</time>
      </trkpt>
      <trkpt lat="48.2308" lon="-4.2559">
        <ele>162</ele>
        <time>2022-05-20T07:14:37.000Z</time>
      </trkpt>
      <trkpt lat="48.23083" lon="-4.25588">
        <ele>162</ele>
        <time>2022-05-20T07:14:38.000Z</time>
      </trkpt>
      <trkpt lat="48.2312" lon="-4.25568">
        <ele>158</ele>
        <time>2022-05-20T07:14:48.000Z</time>
      </trkpt>
      <trkpt lat="48.23146" lon="-4.25554">
        <ele>156</ele>
        <time>2022-05-20T07:14:57.000Z</time>
      </trkpt>
      <trkpt lat="48.23155" lon="-4.2555">
        <ele>155</ele>
        <time>2022-05-20T07:15:00.000Z</time>
      </trkpt>
      <trkpt lat="48.23166" lon="-4.2554">
        <ele>155</ele>
        <time>2022-05-20T07:15:04.000Z</time>
      </trkpt>
      <trkpt lat="48.23169" lon="-4.2554">
        <ele>155</ele>
        <time>2022-05-20T07:15:05.000Z</time>
      </trkpt>
      <trkpt lat="48.23182" lon="-4.25548">
        <ele>154</ele>
        <time>2022-05-20T07:15:10.000Z</time>
      </trkpt>
      <trkpt lat="48.23185" lon="-4.25547">
        <ele>153</ele>
        <time>2022-05-20T07:15:11.000Z</time>
      </trkpt>
      <trkpt lat="48.23187" lon="-4.25545">
        <ele>153</ele>
        <time>2022-05-20T07:15:12.000Z</time>
      </trkpt>
      <trkpt lat="48.23189" lon="-4.25542">
        <ele>153</ele>
        <time>2022-05-20T07:15:13.000Z</time>
      </trkpt>
      <trkpt lat="48.2319" lon="-4.25539">
        <ele>153</ele>
        <time>2022-05-20T07:15:14.000Z</time>
      </trkpt>
      <trkpt lat="48.2319" lon="-4.25536">
        <ele>153</ele>
        <time>2022-05-20T07:15:15.000Z</time>
      </trkpt>
      <trkpt lat="48.23191" lon="-4.25534">
        <ele>153</ele>
        <time>2022-05-20T07:15:16.000Z</time>
      </trkpt>
      <trkpt lat="48.23191" lon="-4.2553">
        <ele>153</ele>
        <time>2022-05-20T07:15:17.000Z</time>
      </trkpt>
      <trkpt lat="48.23193" lon="-4.25527">
        <ele>153</ele>
        <time>2022-05-20T07:15:18.000Z</time>
      </trkpt>
      <trkpt lat="48.2321" lon="-4.25498">
        <ele>153</ele>
        <time>2022-05-20T07:15:25.000Z</time>
      </trkpt>
      <trkpt lat="48.23218" lon="-4.25481">
        <ele>152</ele>
        <time>2022-05-20T07:15:28.000Z</time>
      </trkpt>
      <trkpt lat="48.23226" lon="-4.25463">
        <ele>152</ele>
        <time>2022-05-20T07:15:31.000Z</time>
      </trkpt>
      <trkpt lat="48.23229" lon="-4.25457">
        <ele>152</ele>
        <time>2022-05-20T07:15:32.000Z</time>
      </trkpt>
      <trkpt lat="48.23242" lon="-4.25428">
        <ele>150</ele>
        <time>2022-05-20T07:15:36.000Z</time>
      </trkpt>
      <trkpt lat="48.23244" lon="-4.25419">
        <ele>149</ele>
        <time>2022-05-20T07:15:37.000Z</time>
      </trkpt>
      <trkpt lat="48.23247" lon="-4.2541">
        <ele>149</ele>
        <time>2022-05-20T07:15:38.000Z</time>
      </trkpt>
      <trkpt lat="48.23249" lon="-4.254">
        <ele>148</ele>
        <time>2022-05-20T07:15:39.000Z</time>
      </trkpt>
      <trkpt lat="48.23252" lon="-4.2539">
        <ele>147</ele>
        <time>2022-05-20T07:15:40.000Z</time>
      </trkpt>
      <trkpt lat="48.23254" lon="-4.25379">
        <ele>146</ele>
        <time>2022-05-20T07:15:41.000Z</time>
      </trkpt>
      <trkpt lat="48.23264" lon="-4.25323">
        <ele>141</ele>
        <time>2022-05-20T07:15:46.000Z</time>
      </trkpt>
      <trkpt lat="48.23267" lon="-4.25312">
        <ele>140</ele>
        <time>2022-05-20T07:15:47.000Z</time>
      </trkpt>
      <trkpt lat="48.23269" lon="-4.25301">
        <ele>140</ele>
        <time>2022-05-20T07:15:48.000Z</time>
      </trkpt>
      <trkpt lat="48.23271" lon="-4.25279">
        <ele>139</ele>
        <time>2022-05-20T07:15:50.000Z</time>
      </trkpt>
      <trkpt lat="48.23271" lon="-4.25259">
        <ele>138</ele>
        <time>2022-05-20T07:15:52.000Z</time>
      </trkpt>
      <trkpt lat="48.23271" lon="-4.25249">
        <ele>137</ele>
        <time>2022-05-20T07:15:53.000Z</time>
      </trkpt>
      <trkpt lat="48.23272" lon="-4.25239">
        <ele>136</ele>
        <time>2022-05-20T07:15:54.000Z</time>
      </trkpt>
      <trkpt lat="48.23274" lon="-4.2523">
        <ele>136</ele>
        <time>2022-05-20T07:15:55.000Z</time>
      </trkpt>
      <trkpt lat="48.23277" lon="-4.2522">
        <ele>135</ele>
        <time>2022-05-20T07:15:56.000Z</time>
      </trkpt>
      <trkpt lat="48.23279" lon="-4.2521">
        <ele>135</ele>
        <time>2022-05-20T07:15:57.000Z</time>
      </trkpt>
      <trkpt lat="48.23299" lon="-4.25151">
        <ele>133</ele>
        <time>2022-05-20T07:16:04.000Z</time>
      </trkpt>
      <trkpt lat="48.23302" lon="-4.25144">
        <ele>133</ele>
        <time>2022-05-20T07:16:05.000Z</time>
      </trkpt>
      <trkpt lat="48.23306" lon="-4.25137">
        <ele>133</ele>
        <time>2022-05-20T07:16:06.000Z</time>
      </trkpt>
      <trkpt lat="48.23309" lon="-4.2513">
        <ele>133</ele>
        <time>2022-05-20T07:16:07.000Z</time>
      </trkpt>
      <trkpt lat="48.23312" lon="-4.25123">
        <ele>133</ele>
        <time>2022-05-20T07:16:08.000Z</time>
      </trkpt>
      <trkpt lat="48.23322" lon="-4.25104">
        <ele>133</ele>
        <time>2022-05-20T07:16:11.000Z</time>
      </trkpt>
      <trkpt lat="48.23332" lon="-4.25089">
        <ele>133</ele>
        <time>2022-05-20T07:16:14.000Z</time>
      </trkpt>
      <trkpt lat="48.23335" lon="-4.25083">
        <ele>133</ele>
        <time>2022-05-20T07:16:15.000Z</time>
      </trkpt>
      <trkpt lat="48.23349" lon="-4.25056">
        <ele>132</ele>
        <time>2022-05-20T07:16:20.000Z</time>
      </trkpt>
      <trkpt lat="48.23356" lon="-4.25046">
        <ele>131</ele>
        <time>2022-05-20T07:16:22.000Z</time>
      </trkpt>
      <trkpt lat="48.23359" lon="-4.2504">
        <ele>131</ele>
        <time>2022-05-20T07:16:23.000Z</time>
      </trkpt>
      <trkpt lat="48.23362" lon="-4.25033">
        <ele>131</ele>
        <time>2022-05-20T07:16:24.000Z</time>
      </trkpt>
      <trkpt lat="48.23367" lon="-4.2501">
        <ele>130</ele>
        <time>2022-05-20T07:16:27.000Z</time>
      </trkpt>
      <trkpt lat="48.23367" lon="-4.25004">
        <ele>130</ele>
        <time>2022-05-20T07:16:28.000Z</time>
      </trkpt>
      <trkpt lat="48.23368" lon="-4.24997">
        <ele>130</ele>
        <time>2022-05-20T07:16:29.000Z</time>
      </trkpt>
      <trkpt lat="48.23369" lon="-4.2499">
        <ele>129</ele>
        <time>2022-05-20T07:16:30.000Z</time>
      </trkpt>
      <trkpt lat="48.23371" lon="-4.24984">
        <ele>129</ele>
        <time>2022-05-20T07:16:31.000Z</time>
      </trkpt>
      <trkpt lat="48.23372" lon="-4.24976">
        <ele>129</ele>
        <time>2022-05-20T07:16:32.000Z</time>
      </trkpt>
      <trkpt lat="48.23393" lon="-4.2486">
        <ele>125</ele>
        <time>2022-05-20T07:16:46.000Z</time>
      </trkpt>
      <trkpt lat="48.23394" lon="-4.24852">
        <ele>125</ele>
        <time>2022-05-20T07:16:47.000Z</time>
      </trkpt>
      <trkpt lat="48.23396" lon="-4.24819">
        <ele>123</ele>
        <time>2022-05-20T07:16:51.000Z</time>
      </trkpt>
      <trkpt lat="48.23396" lon="-4.24812">
        <ele>123</ele>
        <time>2022-05-20T07:16:52.000Z</time>
      </trkpt>
      <trkpt lat="48.23396" lon="-4.24805">
        <ele>122</ele>
        <time>2022-05-20T07:16:53.000Z</time>
      </trkpt>
      <trkpt lat="48.23396" lon="-4.24798">
        <ele>122</ele>
        <time>2022-05-20T07:16:54.000Z</time>
      </trkpt>
      <trkpt lat="48.23397" lon="-4.24791">
        <ele>121</ele>
        <time>2022-05-20T07:16:55.000Z</time>
      </trkpt>
      <trkpt lat="48.23399" lon="-4.24742">
        <ele>117</ele>
        <time>2022-05-20T07:17:02.000Z</time>
      </trkpt>
      <trkpt lat="48.23399" lon="-4.24736">
        <ele>117</ele>
        <time>2022-05-20T07:17:03.000Z</time>
      </trkpt>
      <trkpt lat="48.23404" lon="-4.24695">
        <ele>114</ele>
        <time>2022-05-20T07:17:09.000Z</time>
      </trkpt>
      <trkpt lat="48.23406" lon="-4.24681">
        <ele>113</ele>
        <time>2022-05-20T07:17:11.000Z</time>
      </trkpt>
      <trkpt lat="48.23408" lon="-4.24675">
        <ele>113</ele>
        <time>2022-05-20T07:17:12.000Z</time>
      </trkpt>
      <trkpt lat="48.23413" lon="-4.24663">
        <ele>112</ele>
        <time>2022-05-20T07:17:14.000Z</time>
      </trkpt>
      <trkpt lat="48.23414" lon="-4.24656">
        <ele>111</ele>
        <time>2022-05-20T07:17:15.000Z</time>
      </trkpt>
      <trkpt lat="48.23415" lon="-4.24649">
        <ele>110</ele>
        <time>2022-05-20T07:17:16.000Z</time>
      </trkpt>
      <trkpt lat="48.23428" lon="-4.2453">
        <ele>106</ele>
        <time>2022-05-20T07:17:31.000Z</time>
      </trkpt>
      <trkpt lat="48.23435" lon="-4.24464">
        <ele>108</ele>
        <time>2022-05-20T07:17:44.000Z</time>
      </trkpt>
      <trkpt lat="48.23443" lon="-4.24415">
        <ele>114</ele>
        <time>2022-05-20T07:17:58.000Z</time>
      </trkpt>
      <trkpt lat="48.23444" lon="-4.24409">
        <ele>115</ele>
        <time>2022-05-20T07:18:14.000Z</time>
      </trkpt>
      <trkpt lat="48.23442" lon="-4.24403">
        <ele>120</ele>
        <time>2022-05-20T07:18:51.000Z</time>
      </trkpt>
      <trkpt lat="48.23443" lon="-4.24405">
        <ele>115</ele>
        <time>2022-05-20T07:19:16.000Z</time>
      </trkpt>
      <trkpt lat="48.23447" lon="-4.24375">
        <ele>115</ele>
        <time>2022-05-20T07:19:31.000Z</time>
      </trkpt>
      <trkpt lat="48.23454" lon="-4.24331">
        <ele>113</ele>
        <time>2022-05-20T07:19:42.000Z</time>
      </trkpt>
      <trkpt lat="48.23464" lon="-4.24278">
        <ele>116</ele>
        <time>2022-05-20T07:19:55.000Z</time>
      </trkpt>
      <trkpt lat="48.23471" lon="-4.24224">
        <ele>108</ele>
        <time>2022-05-20T07:20:05.000Z</time>
      </trkpt>
      <trkpt lat="48.2347" lon="-4.2421">
        <ele>107</ele>
        <time>2022-05-20T07:20:08.000Z</time>
      </trkpt>
      <trkpt lat="48.23468" lon="-4.24207">
        <ele>106</ele>
        <time>2022-05-20T07:20:09.000Z</time>
      </trkpt>
      <trkpt lat="48.23467" lon="-4.24204">
        <ele>106</ele>
        <time>2022-05-20T07:20:10.000Z</time>
      </trkpt>
      <trkpt lat="48.23522" lon="-4.24216">
        <ele>109.6</ele>
      </trkpt>
      <trkpt lat="48.23568" lon="-4.24233">
        <ele>105.4</ele>
      </trkpt>
      <trkpt lat="48.23612" lon="-4.24255">
        <ele>102.1</ele>
      </trkpt>
      <trkpt lat="48.23655" lon="-4.24274">
        <ele>98.9</ele>
      </trkpt>
      <trkpt lat="48.23699" lon="-4.24293">
        <ele>95.7</ele>
      </trkpt>
      <trkpt lat="48.23738" lon="-4.24298">
        <ele>93.2</ele>
      </trkpt>
      <trkpt lat="48.23785" lon="-4.2428">
        <ele>89.4</ele>
      </trkpt>
      <trkpt lat="48.23859" lon="-4.24323">
        <ele>84.5</ele>
      </trkpt>
      <trkpt lat="48.2393" lon="-4.24413">
        <ele>85</ele>
      </trkpt>
      <trkpt lat="48.23991" lon="-4.24484">
        <ele>84.7</ele>
      </trkpt>
      <trkpt lat="48.24035" lon="-4.24532">
        <ele>82.7</ele>
      </trkpt>
      <trkpt lat="48.24092" lon="-4.24592">
        <ele>79.1</ele>
      </trkpt>
      <trkpt lat="48.24125" lon="-4.24639">
        <ele>76</ele>
      </trkpt>
      <trkpt lat="48.24167" lon="-4.24665">
        <ele>72.3</ele>
      </trkpt>
      <trkpt lat="48.24228" lon="-4.24714">
        <ele>62.2</ele>
      </trkpt>
      <trkpt lat="48.24308" lon="-4.24758">
        <ele>51.6</ele>
      </trkpt>
      <trkpt lat="48.2438" lon="-4.24519">
        <ele>51.2</ele>
      </trkpt>
      <trkpt lat="48.24444" lon="-4.24367">
        <ele>49.9</ele>
      </trkpt>
      <trkpt lat="48.24483" lon="-4.24225">
        <ele>48.7</ele>
      </trkpt>
      <trkpt lat="48.24475" lon="-4.24101">
        <ele>47.7</ele>
      </trkpt>
      <trkpt lat="48.24406" lon="-4.23834">
        <ele>49</ele>
      </trkpt>
      <trkpt lat="48.2445" lon="-4.2389">
        <ele>43.5</ele>
      </trkpt>
      <trkpt lat="48.2448" lon="-4.23937">
        <ele>40.2</ele>
        <time>2022-05-20T08:00:11.000Z</time>
      </trkpt>
      <trkpt lat="48.24488" lon="-4.23969">
        <ele>38.4</ele>
      </trkpt>
      <trkpt lat="48.2449" lon="-4.24029">
        <ele>38.2</ele>
      </trkpt>
      <trkpt lat="48.24504" lon="-4.241">
        <ele>36.7</ele>
      </trkpt>
      <trkpt lat="48.24541" lon="-4.24175">
        <ele>32.6</ele>
      </trkpt>
      <trkpt lat="48.24583" lon="-4.24289">
        <ele>27.6</ele>
      </trkpt>
      <trkpt lat="48.24617" lon="-4.24295">
        <ele>23</ele>
      </trkpt>
      <trkpt lat="48.24664" lon="-4.24276">
        <ele>18.3</ele>
      </trkpt>
      <trkpt lat="48.24675" lon="-4.24195">
        <ele>17.7</ele>
      </trkpt>
      <trkpt lat="48.24709" lon="-4.24186">
        <ele>17.9</ele>
      </trkpt>
      <trkpt lat="48.24734" lon="-4.24192">
        <ele>17.3</ele>
      </trkpt>
      <trkpt lat="48.24755" lon="-4.24199">
        <ele>12</ele>
        <time>2022-05-20T08:03:51.000Z</time>
      </trkpt>
      <trkpt lat="48.24757" lon="-4.24201">
        <ele>11</ele>
        <time>2022-05-20T08:03:52.000Z</time>
      </trkpt>
      <trkpt lat="48.24759" lon="-4.24202">
        <ele>11</ele>
        <time>2022-05-20T08:03:53.000Z</time>
      </trkpt>
      <trkpt lat="48.24761" lon="-4.24204">
        <ele>11</ele>
        <time>2022-05-20T08:03:54.000Z</time>
      </trkpt>
      <trkpt lat="48.24763" lon="-4.24206">
        <ele>11</ele>
        <time>2022-05-20T08:03:55.000Z</time>
      </trkpt>
      <trkpt lat="48.24766" lon="-4.24209">
        <ele>11</ele>
        <time>2022-05-20T08:03:56.000Z</time>
      </trkpt>
      <trkpt lat="48.24791" lon="-4.24223">
        <ele>12</ele>
        <time>2022-05-20T08:04:05.000Z</time>
      </trkpt>
      <trkpt lat="48.24833" lon="-4.24249">
        <ele>13</ele>
        <time>2022-05-20T08:04:14.000Z</time>
      </trkpt>
      <trkpt lat="48.24844" lon="-4.24258">
        <ele>13</ele>
        <time>2022-05-20T08:04:16.000Z</time>
      </trkpt>
      <trkpt lat="48.24861" lon="-4.24271">
        <ele>13</ele>
        <time>2022-05-20T08:04:20.000Z</time>
      </trkpt>
      <trkpt lat="48.24874" lon="-4.24295">
        <ele>11</ele>
        <time>2022-05-20T08:04:53.000Z</time>
      </trkpt>
      <trkpt lat="48.24876" lon="-4.24311">
        <ele>25</ele>
        <time>2022-05-20T08:06:05.000Z</time>
      </trkpt>
      <trkpt lat="48.24899" lon="-4.24358">
        <ele>16</ele>
        <time>2022-05-20T08:06:59.000Z</time>
      </trkpt>
      <trkpt lat="48.24904" lon="-4.24367">
        <ele>18</ele>
        <time>2022-05-20T08:07:14.000Z</time>
      </trkpt>
      <trkpt lat="48.24914" lon="-4.24376">
        <ele>20</ele>
        <time>2022-05-20T08:08:01.000Z</time>
      </trkpt>
      <trkpt lat="48.24934" lon="-4.24385">
        <ele>19</ele>
        <time>2022-05-20T08:08:12.000Z</time>
      </trkpt>
      <trkpt lat="48.24937" lon="-4.24386">
        <ele>20</ele>
        <time>2022-05-20T08:08:14.000Z</time>
      </trkpt>
      <trkpt lat="48.24939" lon="-4.24386">
        <ele>20</ele>
        <time>2022-05-20T08:08:15.000Z</time>
      </trkpt>
      <trkpt lat="48.24947" lon="-4.24389">
        <ele>21</ele>
        <time>2022-05-20T08:08:20.000Z</time>
      </trkpt>
      <trkpt lat="48.24949" lon="-4.24389">
        <ele>20</ele>
        <time>2022-05-20T08:08:21.000Z</time>
      </trkpt>
      <trkpt lat="48.24951" lon="-4.2439">
        <ele>20</ele>
        <time>2022-05-20T08:08:22.000Z</time>
      </trkpt>
      <trkpt lat="48.24953" lon="-4.2439">
        <ele>20</ele>
        <time>2022-05-20T08:08:23.000Z</time>
      </trkpt>
      <trkpt lat="48.24954" lon="-4.24391">
        <ele>20</ele>
        <time>2022-05-20T08:08:24.000Z</time>
      </trkpt>
      <trkpt lat="48.24956" lon="-4.24391">
        <ele>20</ele>
        <time>2022-05-20T08:08:25.000Z</time>
      </trkpt>
      <trkpt lat="48.24957" lon="-4.24391">
        <ele>20</ele>
        <time>2022-05-20T08:08:26.000Z</time>
      </trkpt>
      <trkpt lat="48.2496" lon="-4.24391">
        <ele>20</ele>
        <time>2022-05-20T08:08:27.000Z</time>
      </trkpt>
      <trkpt lat="48.24963" lon="-4.24391">
        <ele>20</ele>
        <time>2022-05-20T08:08:28.000Z</time>
      </trkpt>
      <trkpt lat="48.24967" lon="-4.24391">
        <ele>20</ele>
        <time>2022-05-20T08:08:29.000Z</time>
      </trkpt>
      <trkpt lat="48.24971" lon="-4.24392">
        <ele>20</ele>
        <time>2022-05-20T08:08:30.000Z</time>
      </trkpt>
      <trkpt lat="48.24975" lon="-4.24394">
        <ele>20</ele>
        <time>2022-05-20T08:08:31.000Z</time>
      </trkpt>
      <trkpt lat="48.24978" lon="-4.24396">
        <ele>20</ele>
        <time>2022-05-20T08:08:32.000Z</time>
      </trkpt>
      <trkpt lat="48.24981" lon="-4.24397">
        <ele>20</ele>
        <time>2022-05-20T08:08:33.000Z</time>
      </trkpt>
      <trkpt lat="48.25006" lon="-4.24413">
        <ele>19</ele>
        <time>2022-05-20T08:08:45.000Z</time>
      </trkpt>
      <trkpt lat="48.25022" lon="-4.24429">
        <ele>20</ele>
        <time>2022-05-20T08:08:55.000Z</time>
      </trkpt>
      <trkpt lat="48.2504" lon="-4.24444">
        <ele>18</ele>
        <time>2022-05-20T08:09:07.000Z</time>
      </trkpt>
      <trkpt lat="48.25041" lon="-4.24444">
        <ele>18</ele>
        <time>2022-05-20T08:09:08.000Z</time>
      </trkpt>
      <trkpt lat="48.25043" lon="-4.24444">
        <ele>18</ele>
        <time>2022-05-20T08:09:09.000Z</time>
      </trkpt>
      <trkpt lat="48.2505" lon="-4.2445">
        <ele>17</ele>
        <time>2022-05-20T08:09:13.000Z</time>
      </trkpt>
      <trkpt lat="48.25052" lon="-4.24451">
        <ele>18</ele>
        <time>2022-05-20T08:09:14.000Z</time>
      </trkpt>
      <trkpt lat="48.25054" lon="-4.24453">
        <ele>18</ele>
        <time>2022-05-20T08:09:15.000Z</time>
      </trkpt>
      <trkpt lat="48.25055" lon="-4.24455">
        <ele>18</ele>
        <time>2022-05-20T08:09:16.000Z</time>
      </trkpt>
      <trkpt lat="48.25057" lon="-4.24457">
        <ele>18</ele>
        <time>2022-05-20T08:09:17.000Z</time>
      </trkpt>
      <trkpt lat="48.25058" lon="-4.24459">
        <ele>18</ele>
        <time>2022-05-20T08:09:18.000Z</time>
      </trkpt>
      <trkpt lat="48.25073" lon="-4.2448">
        <ele>17</ele>
        <time>2022-05-20T08:09:27.000Z</time>
      </trkpt>
      <trkpt lat="48.25075" lon="-4.2451">
        <ele>16</ele>
        <time>2022-05-20T08:09:36.000Z</time>
      </trkpt>
      <trkpt lat="48.25078" lon="-4.24553">
        <ele>15</ele>
        <time>2022-05-20T08:09:46.000Z</time>
      </trkpt>
      <trkpt lat="48.25079" lon="-4.24557">
        <ele>15</ele>
        <time>2022-05-20T08:09:47.000Z</time>
      </trkpt>
      <trkpt lat="48.25078" lon="-4.24561">
        <ele>15</ele>
        <time>2022-05-20T08:09:48.000Z</time>
      </trkpt>
      <trkpt lat="48.25078" lon="-4.24565">
        <ele>15</ele>
        <time>2022-05-20T08:09:49.000Z</time>
      </trkpt>
      <trkpt lat="48.25078" lon="-4.24567">
        <ele>15</ele>
        <time>2022-05-20T08:09:50.000Z</time>
      </trkpt>
      <trkpt lat="48.25079" lon="-4.2457">
        <ele>15</ele>
        <time>2022-05-20T08:09:51.000Z</time>
      </trkpt>
      <trkpt lat="48.2508" lon="-4.24573">
        <ele>15</ele>
        <time>2022-05-20T08:09:52.000Z</time>
      </trkpt>
      <trkpt lat="48.25081" lon="-4.24576">
        <ele>15</ele>
        <time>2022-05-20T08:09:53.000Z</time>
      </trkpt>
      <trkpt lat="48.25082" lon="-4.24579">
        <ele>15</ele>
        <time>2022-05-20T08:09:54.000Z</time>
      </trkpt>
      <trkpt lat="48.25084" lon="-4.24583">
        <ele>14</ele>
        <time>2022-05-20T08:09:55.000Z</time>
      </trkpt>
      <trkpt lat="48.25086" lon="-4.24599">
        <ele>14</ele>
        <time>2022-05-20T08:10:00.000Z</time>
      </trkpt>
      <trkpt lat="48.25079" lon="-4.2462">
        <ele>9</ele>
        <time>2022-05-20T08:10:13.000Z</time>
      </trkpt>
      <trkpt lat="48.2508" lon="-4.24625">
        <ele>8</ele>
        <time>2022-05-20T08:10:37.000Z</time>
      </trkpt>
      <trkpt lat="48.25075" lon="-4.2464">
        <ele>6</ele>
        <time>2022-05-20T08:10:48.000Z</time>
      </trkpt>
      <trkpt lat="48.25072" lon="-4.24646">
        <ele>7</ele>
        <time>2022-05-20T08:10:51.000Z</time>
      </trkpt>
      <trkpt lat="48.25076" lon="-4.24671">
        <ele>7</ele>
        <time>2022-05-20T08:11:00.000Z</time>
      </trkpt>
      <trkpt lat="48.25075" lon="-4.24674">
        <ele>7</ele>
        <time>2022-05-20T08:11:01.000Z</time>
      </trkpt>
      <trkpt lat="48.25074" lon="-4.24677">
        <ele>7</ele>
        <time>2022-05-20T08:11:02.000Z</time>
      </trkpt>
      <trkpt lat="48.25073" lon="-4.24681">
        <ele>6</ele>
        <time>2022-05-20T08:11:03.000Z</time>
      </trkpt>
      <trkpt lat="48.25073" lon="-4.24684">
        <ele>6</ele>
        <time>2022-05-20T08:11:04.000Z</time>
      </trkpt>
      <trkpt lat="48.25066" lon="-4.24713">
        <ele>5</ele>
        <time>2022-05-20T08:11:14.000Z</time>
      </trkpt>
      <trkpt lat="48.25065" lon="-4.24716">
        <ele>4</ele>
        <time>2022-05-20T08:11:16.000Z</time>
      </trkpt>
      <trkpt lat="48.25066" lon="-4.24718">
        <ele>3</ele>
        <time>2022-05-20T08:11:17.000Z</time>
      </trkpt>
      <trkpt lat="48.25066" lon="-4.2472">
        <ele>3</ele>
        <time>2022-05-20T08:11:18.000Z</time>
      </trkpt>
      <trkpt lat="48.25067" lon="-4.24723">
        <ele>2</ele>
        <time>2022-05-20T08:11:19.000Z</time>
      </trkpt>
      <trkpt lat="48.25068" lon="-4.24725">
        <ele>2</ele>
        <time>2022-05-20T08:11:20.000Z</time>
      </trkpt>
      <trkpt lat="48.25068" lon="-4.24728">
        <ele>2</ele>
        <time>2022-05-20T08:11:21.000Z</time>
      </trkpt>
      <trkpt lat="48.25068" lon="-4.24731">
        <ele>1</ele>
        <time>2022-05-20T08:11:22.000Z</time>
      </trkpt>
      <trkpt lat="48.25068" lon="-4.24734">
        <ele>1</ele>
        <time>2022-05-20T08:11:23.000Z</time>
      </trkpt>
      <trkpt lat="48.25067" lon="-4.24736">
        <ele>4.9</ele>
        <time>2022-05-20T08:11:24.000Z</time>
      </trkpt>
      <trkpt lat="48.25066" lon="-4.24738">
        <ele>5.1</ele>
        <time>2022-05-20T08:11:25.000Z</time>
      </trkpt>
      <trkpt lat="48.25065" lon="-4.2474">
        <ele>-1</ele>
        <time>2022-05-20T08:11:26.000Z</time>
      </trkpt>
      <trkpt lat="48.25064" lon="-4.24741">
        <ele>-1</ele>
        <time>2022-05-20T08:11:27.000Z</time>
      </trkpt>
      <trkpt lat="48.25064" lon="-4.24746">
        <ele>-3</ele>
        <time>2022-05-20T08:11:30.000Z</time>
      </trkpt>
      <trkpt lat="48.25064" lon="-4.24749">
        <ele>-4</ele>
        <time>2022-05-20T08:11:31.000Z</time>
      </trkpt>
      <trkpt lat="48.25069" lon="-4.24769">
        <ele>-6</ele>
        <time>2022-05-20T08:11:37.000Z</time>
      </trkpt>
      <trkpt lat="48.25068" lon="-4.24772">
        <ele>-7</ele>
        <time>2022-05-20T08:11:38.000Z</time>
      </trkpt>
      <trkpt lat="48.25068" lon="-4.24775">
        <ele>-7</ele>
        <time>2022-05-20T08:11:39.000Z</time>
      </trkpt>
      <trkpt lat="48.25068" lon="-4.24779">
        <ele>-7</ele>
        <time>2022-05-20T08:11:40.000Z</time>
      </trkpt>
      <trkpt lat="48.25067" lon="-4.24782">
        <ele>-8</ele>
        <time>2022-05-20T08:11:41.000Z</time>
      </trkpt>
      <trkpt lat="48.25067" lon="-4.24785">
        <ele>-8</ele>
        <time>2022-05-20T08:11:42.000Z</time>
      </trkpt>
      <trkpt lat="48.25066" lon="-4.24788">
        <ele>-9</ele>
        <time>2022-05-20T08:11:43.000Z</time>
      </trkpt>
      <trkpt lat="48.25065" lon="-4.24791">
        <ele>-9</ele>
        <time>2022-05-20T08:11:44.000Z</time>
      </trkpt>
      <trkpt lat="48.25059" lon="-4.24813">
        <ele>-11</ele>
        <time>2022-05-20T08:11:51.000Z</time>
      </trkpt>
      <trkpt lat="48.25058" lon="-4.24815">
        <ele>-11</ele>
        <time>2022-05-20T08:11:52.000Z</time>
      </trkpt>
      <trkpt lat="48.25057" lon="-4.24818">
        <ele>-12</ele>
        <time>2022-05-20T08:11:53.000Z</time>
      </trkpt>
      <trkpt lat="48.25055" lon="-4.2482">
        <ele>-12</ele>
        <time>2022-05-20T08:11:54.000Z</time>
      </trkpt>
      <trkpt lat="48.25054" lon="-4.24822">
        <ele>-12</ele>
        <time>2022-05-20T08:11:55.000Z</time>
      </trkpt>
      <trkpt lat="48.25051" lon="-4.2484">
        <ele>-16</ele>
        <time>2022-05-20T08:12:07.000Z</time>
      </trkpt>
      <trkpt lat="48.25051" lon="-4.24852">
        <ele>-15</ele>
        <time>2022-05-20T08:12:25.000Z</time>
      </trkpt>
      <trkpt lat="48.25052" lon="-4.24863">
        <ele>1</ele>
        <time>2022-05-20T08:12:43.000Z</time>
      </trkpt>
      <trkpt lat="48.25053" lon="-4.24864">
        <ele>3</ele>
        <time>2022-05-20T08:12:50.000Z</time>
      </trkpt>
      <trkpt lat="48.25059" lon="-4.2487">
        <ele>7</ele>
        <time>2022-05-20T08:12:58.000Z</time>
      </trkpt>
      <trkpt lat="48.25062" lon="-4.2488">
        <ele>11</ele>
        <time>2022-05-20T08:13:04.000Z</time>
      </trkpt>
      <trkpt lat="48.25059" lon="-4.24888">
        <ele>13</ele>
        <time>2022-05-20T08:13:11.000Z</time>
      </trkpt>
      <trkpt lat="48.25058" lon="-4.24889">
        <ele>13</ele>
        <time>2022-05-20T08:13:12.000Z</time>
      </trkpt>
      <trkpt lat="48.25056" lon="-4.2489">
        <ele>13</ele>
        <time>2022-05-20T08:13:13.000Z</time>
      </trkpt>
      <trkpt lat="48.25044" lon="-4.24909">
        <ele>12</ele>
        <time>2022-05-20T08:13:25.000Z</time>
      </trkpt>
      <trkpt lat="48.25033" lon="-4.24933">
        <ele>8</ele>
        <time>2022-05-20T08:13:36.000Z</time>
      </trkpt>
      <trkpt lat="48.25019" lon="-4.24961">
        <ele>7</ele>
        <time>2022-05-20T08:13:48.000Z</time>
      </trkpt>
      <trkpt lat="48.25006" lon="-4.24987">
        <ele>4</ele>
        <time>2022-05-20T08:14:02.000Z</time>
      </trkpt>
      <trkpt lat="48.24994" lon="-4.25003">
        <ele>5</ele>
        <time>2022-05-20T08:14:10.000Z</time>
      </trkpt>
      <trkpt lat="48.24993" lon="-4.25007">
        <ele>5</ele>
        <time>2022-05-20T08:14:11.000Z</time>
      </trkpt>
      <trkpt lat="48.24991" lon="-4.25009">
        <ele>5</ele>
        <time>2022-05-20T08:14:12.000Z</time>
      </trkpt>
      <trkpt lat="48.2499" lon="-4.25012">
        <ele>4</ele>
        <time>2022-05-20T08:14:13.000Z</time>
      </trkpt>
      <trkpt lat="48.24989" lon="-4.25014">
        <ele>4</ele>
        <time>2022-05-20T08:14:14.000Z</time>
      </trkpt>
      <trkpt lat="48.24985" lon="-4.2502">
        <ele>5</ele>
        <time>2022-05-20T08:14:17.000Z</time>
      </trkpt>
      <trkpt lat="48.24983" lon="-4.25022">
        <ele>5</ele>
        <time>2022-05-20T08:14:18.000Z</time>
      </trkpt>
      <trkpt lat="48.24982" lon="-4.25023">
        <ele>5</ele>
        <time>2022-05-20T08:14:19.000Z</time>
      </trkpt>
      <trkpt lat="48.24979" lon="-4.25026">
        <ele>5</ele>
        <time>2022-05-20T08:14:21.000Z</time>
      </trkpt>
      <trkpt lat="48.24965" lon="-4.25055">
        <ele>11</ele>
        <time>2022-05-20T08:14:34.000Z</time>
      </trkpt>
      <trkpt lat="48.24958" lon="-4.25064">
        <ele>10</ele>
        <time>2022-05-20T08:14:40.000Z</time>
      </trkpt>
      <trkpt lat="48.24957" lon="-4.25066">
        <ele>9</ele>
        <time>2022-05-20T08:14:41.000Z</time>
      </trkpt>
      <trkpt lat="48.24956" lon="-4.25067">
        <ele>9</ele>
        <time>2022-05-20T08:14:42.000Z</time>
      </trkpt>
      <trkpt lat="48.24954" lon="-4.25068">
        <ele>9</ele>
        <time>2022-05-20T08:14:43.000Z</time>
      </trkpt>
      <trkpt lat="48.24953" lon="-4.2507">
        <ele>9</ele>
        <time>2022-05-20T08:14:44.000Z</time>
      </trkpt>
      <trkpt lat="48.24951" lon="-4.25072">
        <ele>9</ele>
        <time>2022-05-20T08:14:45.000Z</time>
      </trkpt>
      <trkpt lat="48.24949" lon="-4.25073">
        <ele>9</ele>
        <time>2022-05-20T08:14:46.000Z</time>
      </trkpt>
      <trkpt lat="48.24948" lon="-4.25075">
        <ele>9</ele>
        <time>2022-05-20T08:14:47.000Z</time>
      </trkpt>
      <trkpt lat="48.24947" lon="-4.25077">
        <ele>9</ele>
        <time>2022-05-20T08:14:48.000Z</time>
      </trkpt>
      <trkpt lat="48.24945" lon="-4.25079">
        <ele>9</ele>
        <time>2022-05-20T08:14:49.000Z</time>
      </trkpt>
      <trkpt lat="48.24944" lon="-4.25081">
        <ele>8</ele>
        <time>2022-05-20T08:14:50.000Z</time>
      </trkpt>
      <trkpt lat="48.24934" lon="-4.25103">
        <ele>6</ele>
        <time>2022-05-20T08:15:00.000Z</time>
      </trkpt>
      <trkpt lat="48.24933" lon="-4.25105">
        <ele>6</ele>
        <time>2022-05-20T08:15:01.000Z</time>
      </trkpt>
      <trkpt lat="48.24931" lon="-4.25107">
        <ele>5</ele>
        <time>2022-05-20T08:15:02.000Z</time>
      </trkpt>
      <trkpt lat="48.2493" lon="-4.25108">
        <ele>5</ele>
        <time>2022-05-20T08:15:03.000Z</time>
      </trkpt>
      <trkpt lat="48.24915" lon="-4.25132">
        <ele>-3</ele>
        <time>2022-05-20T08:15:16.000Z</time>
      </trkpt>
      <trkpt lat="48.24899" lon="-4.25164">
        <ele>25.1</ele>
        <time>2022-05-20T08:15:30.000Z</time>
      </trkpt>
      <trkpt lat="48.24892" lon="-4.25175">
        <ele>3</ele>
        <time>2022-05-20T08:15:35.000Z</time>
      </trkpt>
      <trkpt lat="48.24884" lon="-4.25199">
        <ele>-4</ele>
        <time>2022-05-20T08:15:50.000Z</time>
      </trkpt>
      <trkpt lat="48.24881" lon="-4.2521">
        <ele>-5</ele>
        <time>2022-05-20T08:15:55.000Z</time>
      </trkpt>
      <trkpt lat="48.24881" lon="-4.25213">
        <ele>-5</ele>
        <time>2022-05-20T08:15:56.000Z</time>
      </trkpt>
      <trkpt lat="48.24881" lon="-4.25216">
        <ele>-4</ele>
        <time>2022-05-20T08:15:58.000Z</time>
      </trkpt>
      <trkpt lat="48.24881" lon="-4.25219">
        <ele>-3</ele>
        <time>2022-05-20T08:15:59.000Z</time>
      </trkpt>
      <trkpt lat="48.24881" lon="-4.25221">
        <ele>-3</ele>
        <time>2022-05-20T08:16:00.000Z</time>
      </trkpt>
      <trkpt lat="48.2488" lon="-4.25223">
        <ele>-3</ele>
        <time>2022-05-20T08:16:01.000Z</time>
      </trkpt>
      <trkpt lat="48.2488" lon="-4.25225">
        <ele>-2</ele>
        <time>2022-05-20T08:16:02.000Z</time>
      </trkpt>
      <trkpt lat="48.24881" lon="-4.2523">
        <ele>-1</ele>
        <time>2022-05-20T08:16:05.000Z</time>
      </trkpt>
      <trkpt lat="48.24882" lon="-4.25229">
        <ele>32.3</ele>
        <time>2022-05-20T08:16:06.000Z</time>
      </trkpt>
      <trkpt lat="48.24884" lon="-4.25229">
        <ele>4</ele>
        <time>2022-05-20T08:16:19.000Z</time>
      </trkpt>
      <trkpt lat="48.24878" lon="-4.25227">
        <ele>10</ele>
        <time>2022-05-20T08:16:52.000Z</time>
      </trkpt>
      <trkpt lat="48.24881" lon="-4.25237">
        <ele>14</ele>
        <time>2022-05-20T08:17:19.000Z</time>
      </trkpt>
      <trkpt lat="48.24884" lon="-4.25232">
        <ele>23</ele>
        <time>2022-05-20T08:17:47.000Z</time>
      </trkpt>
      <trkpt lat="48.24883" lon="-4.25236">
        <ele>19</ele>
        <time>2022-05-20T08:18:13.000Z</time>
      </trkpt>
      <trkpt lat="48.24884" lon="-4.25237">
        <ele>25</ele>
        <time>2022-05-20T08:18:30.000Z</time>
      </trkpt>
      <trkpt lat="48.2489" lon="-4.2524">
        <ele>25</ele>
        <time>2022-05-20T08:18:55.000Z</time>
      </trkpt>
      <trkpt lat="48.24888" lon="-4.25237">
        <ele>31</ele>
        <time>2022-05-20T08:19:19.000Z</time>
      </trkpt>
      <trkpt lat="48.24889" lon="-4.25236">
        <ele>37</ele>
        <time>2022-05-20T08:19:42.000Z</time>
      </trkpt>
      <trkpt lat="48.24895" lon="-4.25228">
        <ele>42</ele>
        <time>2022-05-20T08:19:55.000Z</time>
      </trkpt>
      <trkpt lat="48.24915" lon="-4.25204">
        <ele>49</ele>
        <time>2022-05-20T08:20:09.000Z</time>
      </trkpt>
      <trkpt lat="48.24939" lon="-4.25182">
        <ele>50</ele>
        <time>2022-05-20T08:20:22.000Z</time>
      </trkpt>
      <trkpt lat="48.24965" lon="-4.25165">
        <ele>55</ele>
        <time>2022-05-20T08:20:35.000Z</time>
      </trkpt>
      <trkpt lat="48.24994" lon="-4.25138">
        <ele>56</ele>
        <time>2022-05-20T08:20:51.000Z</time>
      </trkpt>
      <trkpt lat="48.25022" lon="-4.25119">
        <ele>59</ele>
        <time>2022-05-20T08:21:07.000Z</time>
      </trkpt>
      <trkpt lat="48.25045" lon="-4.25107">
        <ele>58</ele>
        <time>2022-05-20T08:21:21.000Z</time>
      </trkpt>
      <trkpt lat="48.25071" lon="-4.25108">
        <ele>58</ele>
        <time>2022-05-20T08:21:37.000Z</time>
      </trkpt>
      <trkpt lat="48.25073" lon="-4.25111">
        <ele>58</ele>
        <time>2022-05-20T08:21:39.000Z</time>
      </trkpt>
      <trkpt lat="48.25074" lon="-4.25114">
        <ele>58</ele>
        <time>2022-05-20T08:21:41.000Z</time>
      </trkpt>
      <trkpt lat="48.25074" lon="-4.25116">
        <ele>58</ele>
        <time>2022-05-20T08:21:42.000Z</time>
      </trkpt>
      <trkpt lat="48.25074" lon="-4.25118">
        <ele>58</ele>
        <time>2022-05-20T08:21:43.000Z</time>
      </trkpt>
      <trkpt lat="48.25074" lon="-4.2512">
        <ele>58</ele>
        <time>2022-05-20T08:21:44.000Z</time>
      </trkpt>
      <trkpt lat="48.25074" lon="-4.25122">
        <ele>58</ele>
        <time>2022-05-20T08:21:45.000Z</time>
      </trkpt>
      <trkpt lat="48.25072" lon="-4.25142">
        <ele>59</ele>
        <time>2022-05-20T08:21:58.000Z</time>
      </trkpt>
      <trkpt lat="48.25069" lon="-4.25167">
        <ele>59</ele>
        <time>2022-05-20T08:22:12.000Z</time>
      </trkpt>
      <trkpt lat="48.25068" lon="-4.25169">
        <ele>59</ele>
        <time>2022-05-20T08:22:13.000Z</time>
      </trkpt>
      <trkpt lat="48.2506" lon="-4.25191">
        <ele>60</ele>
        <time>2022-05-20T08:22:27.000Z</time>
      </trkpt>
      <trkpt lat="48.25059" lon="-4.25193">
        <ele>60</ele>
        <time>2022-05-20T08:22:28.000Z</time>
      </trkpt>
      <trkpt lat="48.25058" lon="-4.25195">
        <ele>60</ele>
        <time>2022-05-20T08:22:29.000Z</time>
      </trkpt>
      <trkpt lat="48.25058" lon="-4.25197">
        <ele>60</ele>
        <time>2022-05-20T08:22:30.000Z</time>
      </trkpt>
      <trkpt lat="48.25054" lon="-4.25216">
        <ele>59</ele>
        <time>2022-05-20T08:22:42.000Z</time>
      </trkpt>
      <trkpt lat="48.25053" lon="-4.25226">
        <ele>60</ele>
        <time>2022-05-20T08:22:47.000Z</time>
      </trkpt>
      <trkpt lat="48.25052" lon="-4.25235">
        <ele>60</ele>
        <time>2022-05-20T08:22:52.000Z</time>
      </trkpt>
      <trkpt lat="48.25051" lon="-4.25237">
        <ele>60</ele>
        <time>2022-05-20T08:22:53.000Z</time>
      </trkpt>
      <trkpt lat="48.25046" lon="-4.2525">
        <ele>60</ele>
        <time>2022-05-20T08:23:01.000Z</time>
      </trkpt>
      <trkpt lat="48.2504" lon="-4.25273">
        <ele>54</ele>
        <time>2022-05-20T08:23:12.000Z</time>
      </trkpt>
      <trkpt lat="48.25036" lon="-4.25283">
        <ele>53</ele>
        <time>2022-05-20T08:23:16.000Z</time>
      </trkpt>
      <trkpt lat="48.25032" lon="-4.25297">
        <ele>53</ele>
        <time>2022-05-20T08:23:21.000Z</time>
      </trkpt>
      <trkpt lat="48.25032" lon="-4.25299">
        <ele>53</ele>
        <time>2022-05-20T08:23:22.000Z</time>
      </trkpt>
      <trkpt lat="48.25032" lon="-4.25302">
        <ele>53</ele>
        <time>2022-05-20T08:23:23.000Z</time>
      </trkpt>
      <trkpt lat="48.25024" lon="-4.25344">
        <ele>45</ele>
        <time>2022-05-20T08:23:37.000Z</time>
      </trkpt>
      <trkpt lat="48.25025" lon="-4.25365">
        <ele>47</ele>
        <time>2022-05-20T08:23:43.000Z</time>
      </trkpt>
      <trkpt lat="48.25025" lon="-4.25368">
        <ele>47</ele>
        <time>2022-05-20T08:23:44.000Z</time>
      </trkpt>
      <trkpt lat="48.25024" lon="-4.25371">
        <ele>47</ele>
        <time>2022-05-20T08:23:45.000Z</time>
      </trkpt>
      <trkpt lat="48.25014" lon="-4.25431">
        <ele>51</ele>
        <time>2022-05-20T08:24:00.000Z</time>
      </trkpt>
      <trkpt lat="48.24999" lon="-4.25496">
        <ele>56</ele>
        <time>2022-05-20T08:24:16.000Z</time>
      </trkpt>
      <trkpt lat="48.24986" lon="-4.2556">
        <ele>61</ele>
        <time>2022-05-20T08:24:32.000Z</time>
      </trkpt>
      <trkpt lat="48.24985" lon="-4.25643">
        <ele>65</ele>
        <time>2022-05-20T08:24:50.000Z</time>
      </trkpt>
      <trkpt lat="48.24991" lon="-4.25719">
        <ele>66</ele>
        <time>2022-05-20T08:25:05.000Z</time>
      </trkpt>
      <trkpt lat="48.24986" lon="-4.25783">
        <ele>65</ele>
        <time>2022-05-20T08:25:16.000Z</time>
      </trkpt>
      <trkpt lat="48.24969" lon="-4.25853">
        <ele>61</ele>
        <time>2022-05-20T08:25:27.000Z</time>
      </trkpt>
      <trkpt lat="48.24968" lon="-4.2586">
        <ele>61</ele>
        <time>2022-05-20T08:25:28.000Z</time>
      </trkpt>
      <trkpt lat="48.24961" lon="-4.25898">
        <ele>61</ele>
        <time>2022-05-20T08:25:35.000Z</time>
      </trkpt>
      <trkpt lat="48.24961" lon="-4.25901">
        <ele>61</ele>
        <time>2022-05-20T08:25:36.000Z</time>
      </trkpt>
      <trkpt lat="48.24963" lon="-4.25904">
        <ele>62</ele>
        <time>2022-05-20T08:25:37.000Z</time>
      </trkpt>
      <trkpt lat="48.24965" lon="-4.25906">
        <ele>62</ele>
        <time>2022-05-20T08:25:38.000Z</time>
      </trkpt>
      <trkpt lat="48.24967" lon="-4.25908">
        <ele>62</ele>
        <time>2022-05-20T08:25:39.000Z</time>
      </trkpt>
      <trkpt lat="48.24969" lon="-4.2591">
        <ele>62</ele>
        <time>2022-05-20T08:25:40.000Z</time>
      </trkpt>
      <trkpt lat="48.2497" lon="-4.25912">
        <ele>63</ele>
        <time>2022-05-20T08:25:41.000Z</time>
      </trkpt>
      <trkpt lat="48.24997" lon="-4.25954">
        <ele>64</ele>
        <time>2022-05-20T08:25:54.000Z</time>
      </trkpt>
      <trkpt lat="48.24999" lon="-4.25959">
        <ele>64</ele>
        <time>2022-05-20T08:25:55.000Z</time>
      </trkpt>
      <trkpt lat="48.25001" lon="-4.25965">
        <ele>63</ele>
        <time>2022-05-20T08:25:56.000Z</time>
      </trkpt>
      <trkpt lat="48.25003" lon="-4.25971">
        <ele>63</ele>
        <time>2022-05-20T08:25:57.000Z</time>
      </trkpt>
      <trkpt lat="48.25006" lon="-4.25984">
        <ele>62</ele>
        <time>2022-05-20T08:25:59.000Z</time>
      </trkpt>
      <trkpt lat="48.25008" lon="-4.26048">
        <ele>64</ele>
        <time>2022-05-20T08:26:12.000Z</time>
      </trkpt>
      <trkpt lat="48.25009" lon="-4.26083">
        <ele>67</ele>
        <time>2022-05-20T08:26:27.000Z</time>
      </trkpt>
      <trkpt lat="48.25016" lon="-4.26093">
        <ele>69</ele>
        <time>2022-05-20T08:26:32.000Z</time>
      </trkpt>
      <trkpt lat="48.25017" lon="-4.26094">
        <ele>69</ele>
        <time>2022-05-20T08:26:33.000Z</time>
      </trkpt>
      <trkpt lat="48.25019" lon="-4.26094">
        <ele>69</ele>
        <time>2022-05-20T08:26:34.000Z</time>
      </trkpt>
      <trkpt lat="48.25021" lon="-4.26095">
        <ele>69</ele>
        <time>2022-05-20T08:26:35.000Z</time>
      </trkpt>
      <trkpt lat="48.25024" lon="-4.26096">
        <ele>69</ele>
        <time>2022-05-20T08:26:36.000Z</time>
      </trkpt>
      <trkpt lat="48.25026" lon="-4.26096">
        <ele>69</ele>
        <time>2022-05-20T08:26:37.000Z</time>
      </trkpt>
      <trkpt lat="48.25028" lon="-4.26097">
        <ele>69</ele>
        <time>2022-05-20T08:26:38.000Z</time>
      </trkpt>
      <trkpt lat="48.25068" lon="-4.26111">
        <ele>71</ele>
        <time>2022-05-20T08:26:56.000Z</time>
      </trkpt>
      <trkpt lat="48.25104" lon="-4.26134">
        <ele>74</ele>
        <time>2022-05-20T08:27:13.000Z</time>
      </trkpt>
      <trkpt lat="48.25128" lon="-4.26165">
        <ele>75</ele>
        <time>2022-05-20T08:27:26.000Z</time>
      </trkpt>
      <trkpt lat="48.25163" lon="-4.26215">
        <ele>71</ele>
        <time>2022-05-20T08:27:39.000Z</time>
      </trkpt>
      <trkpt lat="48.25215" lon="-4.26294">
        <ele>66</ele>
        <time>2022-05-20T08:27:50.000Z</time>
      </trkpt>
      <trkpt lat="48.25294" lon="-4.26445">
        <ele>51</ele>
        <time>2022-05-20T08:28:04.000Z</time>
      </trkpt>
      <trkpt lat="48.25297" lon="-4.26457">
        <ele>51</ele>
        <time>2022-05-20T08:28:05.000Z</time>
      </trkpt>
      <trkpt lat="48.25299" lon="-4.2647">
        <ele>50</ele>
        <time>2022-05-20T08:28:06.000Z</time>
      </trkpt>
      <trkpt lat="48.25306" lon="-4.26534">
        <ele>47</ele>
        <time>2022-05-20T08:28:11.000Z</time>
      </trkpt>
      <trkpt lat="48.25309" lon="-4.26544">
        <ele>46</ele>
        <time>2022-05-20T08:28:12.000Z</time>
      </trkpt>
      <trkpt lat="48.25313" lon="-4.26554">
        <ele>45</ele>
        <time>2022-05-20T08:28:13.000Z</time>
      </trkpt>
      <trkpt lat="48.25318" lon="-4.26561">
        <ele>45</ele>
        <time>2022-05-20T08:28:14.000Z</time>
      </trkpt>
      <trkpt lat="48.25322" lon="-4.26566">
        <ele>44</ele>
        <time>2022-05-20T08:28:15.000Z</time>
      </trkpt>
      <trkpt lat="48.25326" lon="-4.2657">
        <ele>44</ele>
        <time>2022-05-20T08:28:16.000Z</time>
      </trkpt>
      <trkpt lat="48.25329" lon="-4.26573">
        <ele>44</ele>
        <time>2022-05-20T08:28:17.000Z</time>
      </trkpt>
      <trkpt lat="48.25332" lon="-4.2658">
        <ele>43</ele>
        <time>2022-05-20T08:28:19.000Z</time>
      </trkpt>
      <trkpt lat="48.25332" lon="-4.26584">
        <ele>43</ele>
        <time>2022-05-20T08:28:20.000Z</time>
      </trkpt>
      <trkpt lat="48.25332" lon="-4.26588">
        <ele>43</ele>
        <time>2022-05-20T08:28:21.000Z</time>
      </trkpt>
      <trkpt lat="48.25332" lon="-4.26591">
        <ele>43</ele>
        <time>2022-05-20T08:28:22.000Z</time>
      </trkpt>
      <trkpt lat="48.25331" lon="-4.26601">
        <ele>44</ele>
        <time>2022-05-20T08:28:33.000Z</time>
      </trkpt>
      <trkpt lat="48.25346" lon="-4.26658">
        <ele>41</ele>
        <time>2022-05-20T08:28:43.000Z</time>
      </trkpt>
      <trkpt lat="48.25352" lon="-4.26674">
        <ele>41</ele>
        <time>2022-05-20T08:28:45.000Z</time>
      </trkpt>
      <trkpt lat="48.25357" lon="-4.26681">
        <ele>40</ele>
        <time>2022-05-20T08:28:46.000Z</time>
      </trkpt>
      <trkpt lat="48.25396" lon="-4.26721">
        <ele>36</ele>
        <time>2022-05-20T08:28:52.000Z</time>
      </trkpt>
      <trkpt lat="48.25402" lon="-4.26731">
        <ele>35</ele>
        <time>2022-05-20T08:28:53.000Z</time>
      </trkpt>
      <trkpt lat="48.25406" lon="-4.26743">
        <ele>35</ele>
        <time>2022-05-20T08:28:54.000Z</time>
      </trkpt>
      <trkpt lat="48.25409" lon="-4.26756">
        <ele>34</ele>
        <time>2022-05-20T08:28:55.000Z</time>
      </trkpt>
      <trkpt lat="48.25412" lon="-4.26769">
        <ele>34</ele>
        <time>2022-05-20T08:28:56.000Z</time>
      </trkpt>
      <trkpt lat="48.25441" lon="-4.26893">
        <ele>30</ele>
        <time>2022-05-20T08:29:06.000Z</time>
      </trkpt>
      <trkpt lat="48.25494" lon="-4.27035">
        <ele>25</ele>
        <time>2022-05-20T08:29:17.000Z</time>
      </trkpt>
      <trkpt lat="48.25508" lon="-4.27076">
        <ele>23</ele>
        <time>2022-05-20T08:29:20.000Z</time>
      </trkpt>
      <trkpt lat="48.25515" lon="-4.27088">
        <ele>22</ele>
        <time>2022-05-20T08:29:21.000Z</time>
      </trkpt>
      <trkpt lat="48.25524" lon="-4.27098">
        <ele>21</ele>
        <time>2022-05-20T08:29:22.000Z</time>
      </trkpt>
      <trkpt lat="48.25534" lon="-4.27105">
        <ele>20</ele>
        <time>2022-05-20T08:29:23.000Z</time>
      </trkpt>
      <trkpt lat="48.25544" lon="-4.27111">
        <ele>19</ele>
        <time>2022-05-20T08:29:24.000Z</time>
      </trkpt>
      <trkpt lat="48.25555" lon="-4.27116">
        <ele>18</ele>
        <time>2022-05-20T08:29:25.000Z</time>
      </trkpt>
      <trkpt lat="48.25719" lon="-4.27192">
        <ele>9</ele>
        <time>2022-05-20T08:29:41.000Z</time>
      </trkpt>
      <trkpt lat="48.25784" lon="-4.27239">
        <ele>10</ele>
        <time>2022-05-20T08:29:51.000Z</time>
      </trkpt>
      <trkpt lat="48.25804" lon="-4.27268">
        <ele>16</ele>
        <time>2022-05-20T08:30:01.000Z</time>
      </trkpt>
      <trkpt lat="48.25831" lon="-4.27307">
        <ele>20</ele>
        <time>2022-05-20T08:30:13.000Z</time>
      </trkpt>
      <trkpt lat="48.25869" lon="-4.27351">
        <ele>20</ele>
        <time>2022-05-20T08:30:27.000Z</time>
      </trkpt>
      <trkpt lat="48.25899" lon="-4.27376">
        <ele>19</ele>
        <time>2022-05-20T08:30:36.000Z</time>
      </trkpt>
      <trkpt lat="48.25903" lon="-4.27374">
        <ele>19</ele>
        <time>2022-05-20T08:30:37.000Z</time>
      </trkpt>
      <trkpt lat="48.25906" lon="-4.2737">
        <ele>19</ele>
        <time>2022-05-20T08:30:38.000Z</time>
      </trkpt>
      <trkpt lat="48.25908" lon="-4.27366">
        <ele>19</ele>
        <time>2022-05-20T08:30:39.000Z</time>
      </trkpt>
      <trkpt lat="48.25911" lon="-4.27361">
        <ele>19</ele>
        <time>2022-05-20T08:30:40.000Z</time>
      </trkpt>
      <trkpt lat="48.25927" lon="-4.27326">
        <ele>17</ele>
        <time>2022-05-20T08:30:46.000Z</time>
      </trkpt>
      <trkpt lat="48.25929" lon="-4.27319">
        <ele>17</ele>
        <time>2022-05-20T08:30:47.000Z</time>
      </trkpt>
      <trkpt lat="48.2594" lon="-4.27293">
        <ele>16</ele>
        <time>2022-05-20T08:30:51.000Z</time>
      </trkpt>
      <trkpt lat="48.25975" lon="-4.27204">
        <ele>16</ele>
        <time>2022-05-20T08:31:06.000Z</time>
      </trkpt>
      <trkpt lat="48.26006" lon="-4.27099">
        <ele>17</ele>
        <time>2022-05-20T08:31:23.000Z</time>
      </trkpt>
      <trkpt lat="48.26024" lon="-4.27019">
        <ele>17</ele>
        <time>2022-05-20T08:31:35.000Z</time>
      </trkpt>
      <trkpt lat="48.26046" lon="-4.26928">
        <ele>16</ele>
        <time>2022-05-20T08:31:48.000Z</time>
      </trkpt>
      <trkpt lat="48.26068" lon="-4.26834">
        <ele>21</ele>
        <time>2022-05-20T08:32:04.000Z</time>
      </trkpt>
      <trkpt lat="48.26084" lon="-4.26765">
        <ele>23</ele>
        <time>2022-05-20T08:32:17.000Z</time>
      </trkpt>
      <trkpt lat="48.26106" lon="-4.26674">
        <ele>26</ele>
        <time>2022-05-20T08:32:36.000Z</time>
      </trkpt>
      <trkpt lat="48.26123" lon="-4.26591">
        <ele>26</ele>
        <time>2022-05-20T08:32:53.000Z</time>
      </trkpt>
      <trkpt lat="48.26142" lon="-4.26566">
        <ele>28</ele>
        <time>2022-05-20T08:33:06.000Z</time>
      </trkpt>
      <trkpt lat="48.26145" lon="-4.26566">
        <ele>29</ele>
        <time>2022-05-20T08:33:08.000Z</time>
      </trkpt>
      <trkpt lat="48.26146" lon="-4.26566">
        <ele>29</ele>
        <time>2022-05-20T08:33:09.000Z</time>
      </trkpt>
      <trkpt lat="48.26148" lon="-4.26568">
        <ele>29</ele>
        <time>2022-05-20T08:33:10.000Z</time>
      </trkpt>
      <trkpt lat="48.26149" lon="-4.26569">
        <ele>29</ele>
        <time>2022-05-20T08:33:11.000Z</time>
      </trkpt>
      <trkpt lat="48.26151" lon="-4.26569">
        <ele>29</ele>
        <time>2022-05-20T08:33:12.000Z</time>
      </trkpt>
      <trkpt lat="48.26152" lon="-4.26568">
        <ele>29</ele>
        <time>2022-05-20T08:33:13.000Z</time>
      </trkpt>
      <trkpt lat="48.26153" lon="-4.26566">
        <ele>29</ele>
        <time>2022-05-20T08:33:14.000Z</time>
      </trkpt>
      <trkpt lat="48.26164" lon="-4.26528">
        <ele>31</ele>
        <time>2022-05-20T08:33:26.000Z</time>
      </trkpt>
      <trkpt lat="48.26176" lon="-4.26472">
        <ele>34</ele>
        <time>2022-05-20T08:33:38.000Z</time>
      </trkpt>
      <trkpt lat="48.26177" lon="-4.26466">
        <ele>34</ele>
        <time>2022-05-20T08:33:39.000Z</time>
      </trkpt>
      <trkpt lat="48.26187" lon="-4.26403">
        <ele>38</ele>
        <time>2022-05-20T08:33:51.000Z</time>
      </trkpt>
      <trkpt lat="48.2619" lon="-4.26347">
        <ele>46</ele>
        <time>2022-05-20T08:34:01.000Z</time>
      </trkpt>
      <trkpt lat="48.26196" lon="-4.26288">
        <ele>51</ele>
        <time>2022-05-20T08:34:11.000Z</time>
      </trkpt>
      <trkpt lat="48.262" lon="-4.26255">
        <ele>50</ele>
        <time>2022-05-20T08:34:16.000Z</time>
      </trkpt>
      <trkpt lat="48.26202" lon="-4.26248">
        <ele>50</ele>
        <time>2022-05-20T08:34:17.000Z</time>
      </trkpt>
      <trkpt lat="48.26203" lon="-4.26241">
        <ele>50</ele>
        <time>2022-05-20T08:34:18.000Z</time>
      </trkpt>
      <trkpt lat="48.26204" lon="-4.26234">
        <ele>49</ele>
        <time>2022-05-20T08:34:19.000Z</time>
      </trkpt>
      <trkpt lat="48.26206" lon="-4.26226">
        <ele>49</ele>
        <time>2022-05-20T08:34:20.000Z</time>
      </trkpt>
      <trkpt lat="48.26208" lon="-4.26218">
        <ele>48</ele>
        <time>2022-05-20T08:34:21.000Z</time>
      </trkpt>
      <trkpt lat="48.2623" lon="-4.26149">
        <ele>41</ele>
        <time>2022-05-20T08:34:30.000Z</time>
      </trkpt>
      <trkpt lat="48.26233" lon="-4.26141">
        <ele>40</ele>
        <time>2022-05-20T08:34:31.000Z</time>
      </trkpt>
      <trkpt lat="48.26241" lon="-4.26125">
        <ele>39</ele>
        <time>2022-05-20T08:34:33.000Z</time>
      </trkpt>
      <trkpt lat="48.26253" lon="-4.26103">
        <ele>36</ele>
        <time>2022-05-20T08:34:36.000Z</time>
      </trkpt>
      <trkpt lat="48.26274" lon="-4.26063">
        <ele>30</ele>
        <time>2022-05-20T08:34:41.000Z</time>
      </trkpt>
      <trkpt lat="48.26278" lon="-4.26057">
        <ele>30</ele>
        <time>2022-05-20T08:34:42.000Z</time>
      </trkpt>
      <trkpt lat="48.26299" lon="-4.26017">
        <ele>27</ele>
        <time>2022-05-20T08:34:48.000Z</time>
      </trkpt>
      <trkpt lat="48.26302" lon="-4.2601">
        <ele>26</ele>
        <time>2022-05-20T08:34:49.000Z</time>
      </trkpt>
      <trkpt lat="48.26334" lon="-4.25952">
        <ele>24</ele>
        <time>2022-05-20T08:34:58.000Z</time>
      </trkpt>
      <trkpt lat="48.26344" lon="-4.25937">
        <ele>23</ele>
        <time>2022-05-20T08:35:00.000Z</time>
      </trkpt>
      <trkpt lat="48.26348" lon="-4.25928">
        <ele>23</ele>
        <time>2022-05-20T08:35:01.000Z</time>
      </trkpt>
      <trkpt lat="48.26351" lon="-4.25918">
        <ele>23</ele>
        <time>2022-05-20T08:35:02.000Z</time>
      </trkpt>
      <trkpt lat="48.26353" lon="-4.25907">
        <ele>23</ele>
        <time>2022-05-20T08:35:03.000Z</time>
      </trkpt>
      <trkpt lat="48.26352" lon="-4.25896">
        <ele>23</ele>
        <time>2022-05-20T08:35:04.000Z</time>
      </trkpt>
      <trkpt lat="48.26351" lon="-4.25886">
        <ele>23</ele>
        <time>2022-05-20T08:35:05.000Z</time>
      </trkpt>
      <trkpt lat="48.26349" lon="-4.25868">
        <ele>23</ele>
        <time>2022-05-20T08:35:07.000Z</time>
      </trkpt>
      <trkpt lat="48.26349" lon="-4.25853">
        <ele>23</ele>
        <time>2022-05-20T08:35:09.000Z</time>
      </trkpt>
      <trkpt lat="48.2635" lon="-4.25828">
        <ele>22</ele>
        <time>2022-05-20T08:35:12.000Z</time>
      </trkpt>
      <trkpt lat="48.2635" lon="-4.25821">
        <ele>21</ele>
        <time>2022-05-20T08:35:13.000Z</time>
      </trkpt>
      <trkpt lat="48.2635" lon="-4.25816">
        <ele>21</ele>
        <time>2022-05-20T08:35:14.000Z</time>
      </trkpt>
      <trkpt lat="48.2635" lon="-4.25811">
        <ele>20</ele>
        <time>2022-05-20T08:35:15.000Z</time>
      </trkpt>
      <trkpt lat="48.2635" lon="-4.25807">
        <ele>20</ele>
        <time>2022-05-20T08:35:16.000Z</time>
      </trkpt>
      <trkpt lat="48.26351" lon="-4.25802">
        <ele>20</ele>
        <time>2022-05-20T08:35:17.000Z</time>
      </trkpt>
      <trkpt lat="48.26351" lon="-4.25798">
        <ele>20</ele>
        <time>2022-05-20T08:35:18.000Z</time>
      </trkpt>
      <trkpt lat="48.26351" lon="-4.25794">
        <ele>20</ele>
        <time>2022-05-20T08:35:19.000Z</time>
      </trkpt>
      <trkpt lat="48.26351" lon="-4.2579">
        <ele>20</ele>
        <time>2022-05-20T08:35:20.000Z</time>
      </trkpt>
      <trkpt lat="48.26356" lon="-4.25758">
        <ele>23</ele>
        <time>2022-05-20T08:35:30.000Z</time>
      </trkpt>
      <trkpt lat="48.26361" lon="-4.25744">
        <ele>23</ele>
        <time>2022-05-20T08:35:33.000Z</time>
      </trkpt>
      <trkpt lat="48.26364" lon="-4.2574">
        <ele>23</ele>
        <time>2022-05-20T08:35:34.000Z</time>
      </trkpt>
      <trkpt lat="48.26369" lon="-4.25737">
        <ele>22</ele>
        <time>2022-05-20T08:35:35.000Z</time>
      </trkpt>
      <trkpt lat="48.26375" lon="-4.25736">
        <ele>22</ele>
        <time>2022-05-20T08:35:36.000Z</time>
      </trkpt>
      <trkpt lat="48.26382" lon="-4.25736">
        <ele>21</ele>
        <time>2022-05-20T08:35:37.000Z</time>
      </trkpt>
      <trkpt lat="48.2644" lon="-4.25742">
        <ele>14</ele>
        <time>2022-05-20T08:35:47.000Z</time>
      </trkpt>
      <trkpt lat="48.2646" lon="-4.25748">
        <ele>10</ele>
        <time>2022-05-20T08:35:52.000Z</time>
      </trkpt>
      <trkpt lat="48.26465" lon="-4.25751">
        <ele>10</ele>
        <time>2022-05-20T08:35:53.000Z</time>
      </trkpt>
      <trkpt lat="48.2647" lon="-4.25755">
        <ele>9</ele>
        <time>2022-05-20T08:35:54.000Z</time>
      </trkpt>
      <trkpt lat="48.26475" lon="-4.25759">
        <ele>9</ele>
        <time>2022-05-20T08:35:55.000Z</time>
      </trkpt>
      <trkpt lat="48.26479" lon="-4.25764">
        <ele>9</ele>
        <time>2022-05-20T08:35:56.000Z</time>
      </trkpt>
      <trkpt lat="48.26507" lon="-4.25816">
        <ele>9</ele>
        <time>2022-05-20T08:36:07.000Z</time>
      </trkpt>
      <trkpt lat="48.26522" lon="-4.25863">
        <ele>15</ele>
        <time>2022-05-20T08:36:19.000Z</time>
      </trkpt>
      <trkpt lat="48.26547" lon="-4.25909">
        <ele>18</ele>
        <time>2022-05-20T08:36:30.000Z</time>
      </trkpt>
      <trkpt lat="48.26572" lon="-4.25935">
        <ele>21</ele>
        <time>2022-05-20T08:36:40.000Z</time>
      </trkpt>
      <trkpt lat="48.26606" lon="-4.2596">
        <ele>21</ele>
        <time>2022-05-20T08:36:51.000Z</time>
      </trkpt>
      <trkpt lat="48.26643" lon="-4.26012">
        <ele>19</ele>
        <time>2022-05-20T08:37:06.000Z</time>
      </trkpt>
      <trkpt lat="48.2667" lon="-4.26067">
        <ele>21</ele>
        <time>2022-05-20T08:37:21.000Z</time>
      </trkpt>
      <trkpt lat="48.26681" lon="-4.26108">
        <ele>24</ele>
        <time>2022-05-20T08:37:35.000Z</time>
      </trkpt>
      <trkpt lat="48.267" lon="-4.26148">
        <ele>24</ele>
        <time>2022-05-20T08:37:48.000Z</time>
      </trkpt>
      <trkpt lat="48.26707" lon="-4.26164">
        <ele>23</ele>
        <time>2022-05-20T08:37:51.000Z</time>
      </trkpt>
      <trkpt lat="48.26709" lon="-4.26171">
        <ele>23</ele>
        <time>2022-05-20T08:37:52.000Z</time>
      </trkpt>
      <trkpt lat="48.26711" lon="-4.26178">
        <ele>22</ele>
        <time>2022-05-20T08:37:53.000Z</time>
      </trkpt>
      <trkpt lat="48.26712" lon="-4.26185">
        <ele>22</ele>
        <time>2022-05-20T08:37:54.000Z</time>
      </trkpt>
      <trkpt lat="48.26714" lon="-4.26192">
        <ele>21</ele>
        <time>2022-05-20T08:37:55.000Z</time>
      </trkpt>
      <trkpt lat="48.26728" lon="-4.26256">
        <ele>20</ele>
        <time>2022-05-20T08:38:07.000Z</time>
      </trkpt>
      <trkpt lat="48.26745" lon="-4.26335">
        <ele>17</ele>
        <time>2022-05-20T08:38:21.000Z</time>
      </trkpt>
      <trkpt lat="48.26768" lon="-4.26426">
        <ele>16</ele>
        <time>2022-05-20T08:38:36.000Z</time>
      </trkpt>
      <trkpt lat="48.2678" lon="-4.26486">
        <ele>17</ele>
        <time>2022-05-20T08:38:46.000Z</time>
      </trkpt>
      <trkpt lat="48.26781" lon="-4.26508">
        <ele>18</ele>
        <time>2022-05-20T08:38:50.000Z</time>
      </trkpt>
      <trkpt lat="48.26782" lon="-4.26515">
        <ele>18</ele>
        <time>2022-05-20T08:38:52.000Z</time>
      </trkpt>
      <trkpt lat="48.26784" lon="-4.26518">
        <ele>18</ele>
        <time>2022-05-20T08:38:53.000Z</time>
      </trkpt>
      <trkpt lat="48.26785" lon="-4.2652">
        <ele>18</ele>
        <time>2022-05-20T08:38:54.000Z</time>
      </trkpt>
      <trkpt lat="48.26786" lon="-4.26523">
        <ele>17</ele>
        <time>2022-05-20T08:38:55.000Z</time>
      </trkpt>
      <trkpt lat="48.26786" lon="-4.26526">
        <ele>17</ele>
        <time>2022-05-20T08:38:56.000Z</time>
      </trkpt>
      <trkpt lat="48.26786" lon="-4.26529">
        <ele>17</ele>
        <time>2022-05-20T08:38:57.000Z</time>
      </trkpt>
      <trkpt lat="48.26795" lon="-4.26572">
        <ele>17</ele>
        <time>2022-05-20T08:39:07.000Z</time>
      </trkpt>
      <trkpt lat="48.26808" lon="-4.26625">
        <ele>17</ele>
        <time>2022-05-20T08:39:19.000Z</time>
      </trkpt>
      <trkpt lat="48.26823" lon="-4.26678">
        <ele>16</ele>
        <time>2022-05-20T08:39:31.000Z</time>
      </trkpt>
      <trkpt lat="48.26845" lon="-4.26731">
        <ele>17</ele>
        <time>2022-05-20T08:39:45.000Z</time>
      </trkpt>
      <trkpt lat="48.26855" lon="-4.26779">
        <ele>17</ele>
        <time>2022-05-20T08:39:59.000Z</time>
      </trkpt>
      <trkpt lat="48.26856" lon="-4.26818">
        <ele>22</ele>
        <time>2022-05-20T08:40:11.000Z</time>
      </trkpt>
      <trkpt lat="48.26851" lon="-4.26867">
        <ele>27</ele>
        <time>2022-05-20T08:40:26.000Z</time>
      </trkpt>
      <trkpt lat="48.26872" lon="-4.26901">
        <ele>31</ele>
        <time>2022-05-20T08:40:39.000Z</time>
      </trkpt>
      <trkpt lat="48.26897" lon="-4.26918">
        <ele>29</ele>
        <time>2022-05-20T08:40:51.000Z</time>
      </trkpt>
      <trkpt lat="48.26917" lon="-4.2695">
        <ele>28</ele>
        <time>2022-05-20T08:41:02.000Z</time>
      </trkpt>
      <trkpt lat="48.26922" lon="-4.26992">
        <ele>29</ele>
        <time>2022-05-20T08:41:12.000Z</time>
      </trkpt>
      <trkpt lat="48.26924" lon="-4.27004">
        <ele>28</ele>
        <time>2022-05-20T08:41:14.000Z</time>
      </trkpt>
      <trkpt lat="48.26926" lon="-4.27009">
        <ele>28</ele>
        <time>2022-05-20T08:41:15.000Z</time>
      </trkpt>
      <trkpt lat="48.26931" lon="-4.27012">
        <ele>27</ele>
        <time>2022-05-20T08:41:16.000Z</time>
      </trkpt>
      <trkpt lat="48.26935" lon="-4.27013">
        <ele>27</ele>
        <time>2022-05-20T08:41:17.000Z</time>
      </trkpt>
      <trkpt lat="48.2694" lon="-4.27014">
        <ele>26</ele>
        <time>2022-05-20T08:41:18.000Z</time>
      </trkpt>
      <trkpt lat="48.26945" lon="-4.27014">
        <ele>26</ele>
        <time>2022-05-20T08:41:19.000Z</time>
      </trkpt>
      <trkpt lat="48.2695" lon="-4.27016">
        <ele>26</ele>
        <time>2022-05-20T08:41:20.000Z</time>
      </trkpt>
      <trkpt lat="48.26953" lon="-4.27018">
        <ele>26</ele>
        <time>2022-05-20T08:41:21.000Z</time>
      </trkpt>
      <trkpt lat="48.26957" lon="-4.27022">
        <ele>26</ele>
        <time>2022-05-20T08:41:22.000Z</time>
      </trkpt>
      <trkpt lat="48.26979" lon="-4.2705">
        <ele>23</ele>
        <time>2022-05-20T08:41:29.000Z</time>
      </trkpt>
      <trkpt lat="48.26982" lon="-4.27056">
        <ele>23</ele>
        <time>2022-05-20T08:41:30.000Z</time>
      </trkpt>
      <trkpt lat="48.27015" lon="-4.27117">
        <ele>24</ele>
        <time>2022-05-20T08:41:41.000Z</time>
      </trkpt>
      <trkpt lat="48.2705" lon="-4.27153">
        <ele>29</ele>
        <time>2022-05-20T08:41:53.000Z</time>
      </trkpt>
      <trkpt lat="48.27063" lon="-4.27173">
        <ele>30</ele>
        <time>2022-05-20T08:41:58.000Z</time>
      </trkpt>
      <trkpt lat="48.27066" lon="-4.27179">
        <ele>30</ele>
        <time>2022-05-20T08:41:59.000Z</time>
      </trkpt>
      <trkpt lat="48.27077" lon="-4.27231">
        <ele>29</ele>
        <time>2022-05-20T08:42:08.000Z</time>
      </trkpt>
      <trkpt lat="48.27094" lon="-4.27277">
        <ele>31</ele>
        <time>2022-05-20T08:42:18.000Z</time>
      </trkpt>
      <trkpt lat="48.27116" lon="-4.27333">
        <ele>34</ele>
        <time>2022-05-20T08:42:29.000Z</time>
      </trkpt>
      <trkpt lat="48.27131" lon="-4.27395">
        <ele>31</ele>
        <time>2022-05-20T08:42:40.000Z</time>
      </trkpt>
      <trkpt lat="48.27145" lon="-4.27457">
        <ele>27</ele>
        <time>2022-05-20T08:42:50.000Z</time>
      </trkpt>
      <trkpt lat="48.27164" lon="-4.27529">
        <ele>24</ele>
        <time>2022-05-20T08:43:03.000Z</time>
      </trkpt>
      <trkpt lat="48.27173" lon="-4.27592">
        <ele>29</ele>
        <time>2022-05-20T08:43:15.000Z</time>
      </trkpt>
      <trkpt lat="48.27176" lon="-4.27653">
        <ele>30</ele>
        <time>2022-05-20T08:43:26.000Z</time>
      </trkpt>
      <trkpt lat="48.27175" lon="-4.27724">
        <ele>29</ele>
        <time>2022-05-20T08:43:38.000Z</time>
      </trkpt>
      <trkpt lat="48.27174" lon="-4.27787">
        <ele>29</ele>
        <time>2022-05-20T08:43:48.000Z</time>
      </trkpt>
      <trkpt lat="48.27163" lon="-4.27849">
        <ele>25</ele>
        <time>2022-05-20T08:43:58.000Z</time>
      </trkpt>
      <trkpt lat="48.27161" lon="-4.27854">
        <ele>25</ele>
        <time>2022-05-20T08:43:59.000Z</time>
      </trkpt>
      <trkpt lat="48.27159" lon="-4.27859">
        <ele>24</ele>
        <time>2022-05-20T08:44:00.000Z</time>
      </trkpt>
      <trkpt lat="48.27157" lon="-4.27863">
        <ele>24</ele>
        <time>2022-05-20T08:44:01.000Z</time>
      </trkpt>
      <trkpt lat="48.27152" lon="-4.27884">
        <ele>21</ele>
        <time>2022-05-20T08:44:05.000Z</time>
      </trkpt>
      <trkpt lat="48.27152" lon="-4.27888">
        <ele>20</ele>
        <time>2022-05-20T08:44:06.000Z</time>
      </trkpt>
      <trkpt lat="48.27152" lon="-4.2791">
        <ele>16</ele>
        <time>2022-05-20T08:44:11.000Z</time>
      </trkpt>
      <trkpt lat="48.27152" lon="-4.27913">
        <ele>16</ele>
        <time>2022-05-20T08:44:12.000Z</time>
      </trkpt>
      <trkpt lat="48.27153" lon="-4.27916">
        <ele>16</ele>
        <time>2022-05-20T08:44:13.000Z</time>
      </trkpt>
      <trkpt lat="48.27154" lon="-4.27953">
        <ele>16</ele>
        <time>2022-05-20T08:44:25.000Z</time>
      </trkpt>
      <trkpt lat="48.2716" lon="-4.27988">
        <ele>26</ele>
        <time>2022-05-20T08:44:40.000Z</time>
      </trkpt>
      <trkpt lat="48.27161" lon="-4.27992">
        <ele>27</ele>
        <time>2022-05-20T08:44:42.000Z</time>
      </trkpt>
      <trkpt lat="48.27163" lon="-4.28008">
        <ele>31</ele>
        <time>2022-05-20T08:44:51.000Z</time>
      </trkpt>
      <trkpt lat="48.27165" lon="-4.28014">
        <ele>32</ele>
        <time>2022-05-20T08:44:54.000Z</time>
      </trkpt>
      <trkpt lat="48.27165" lon="-4.28036">
        <ele>32</ele>
        <time>2022-05-20T08:45:08.000Z</time>
      </trkpt>
      <trkpt lat="48.2717" lon="-4.28056">
        <ele>36</ele>
        <time>2022-05-20T08:45:22.000Z</time>
      </trkpt>
      <trkpt lat="48.27176" lon="-4.28072">
        <ele>39</ele>
        <time>2022-05-20T08:45:34.000Z</time>
      </trkpt>
      <trkpt lat="48.27179" lon="-4.2808">
        <ele>39</ele>
        <time>2022-05-20T08:45:48.000Z</time>
      </trkpt>
      <trkpt lat="48.27182" lon="-4.28085">
        <ele>36</ele>
        <time>2022-05-20T08:46:28.000Z</time>
      </trkpt>
      <trkpt lat="48.27174" lon="-4.28081">
        <ele>42</ele>
        <time>2022-05-20T08:47:01.000Z</time>
      </trkpt>
      <trkpt lat="48.27179" lon="-4.28076">
        <ele>44</ele>
        <time>2022-05-20T08:47:30.000Z</time>
      </trkpt>
      <trkpt lat="48.27181" lon="-4.28075">
        <ele>43</ele>
        <time>2022-05-20T08:47:37.000Z</time>
      </trkpt>
      <trkpt lat="48.27182" lon="-4.28074">
        <ele>43</ele>
        <time>2022-05-20T08:47:38.000Z</time>
      </trkpt>
      <trkpt lat="48.27184" lon="-4.28071">
        <ele>43</ele>
        <time>2022-05-20T08:47:39.000Z</time>
      </trkpt>
      <trkpt lat="48.27193" lon="-4.28056">
        <ele>42</ele>
        <time>2022-05-20T08:47:42.000Z</time>
      </trkpt>
      <trkpt lat="48.2724" lon="-4.27976">
        <ele>35</ele>
        <time>2022-05-20T08:47:52.000Z</time>
      </trkpt>
      <trkpt lat="48.27249" lon="-4.27959">
        <ele>34</ele>
        <time>2022-05-20T08:47:54.000Z</time>
      </trkpt>
      <trkpt lat="48.27254" lon="-4.27951">
        <ele>33</ele>
        <time>2022-05-20T08:47:55.000Z</time>
      </trkpt>
      <trkpt lat="48.27259" lon="-4.27942">
        <ele>32</ele>
        <time>2022-05-20T08:47:56.000Z</time>
      </trkpt>
      <trkpt lat="48.27263" lon="-4.27933">
        <ele>31</ele>
        <time>2022-05-20T08:47:57.000Z</time>
      </trkpt>
      <trkpt lat="48.27267" lon="-4.27925">
        <ele>30</ele>
        <time>2022-05-20T08:47:58.000Z</time>
      </trkpt>
      <trkpt lat="48.27282" lon="-4.27897">
        <ele>26</ele>
        <time>2022-05-20T08:48:02.000Z</time>
      </trkpt>
      <trkpt lat="48.27286" lon="-4.27892">
        <ele>25</ele>
        <time>2022-05-20T08:48:03.000Z</time>
      </trkpt>
      <trkpt lat="48.2729" lon="-4.27889">
        <ele>25</ele>
        <time>2022-05-20T08:48:04.000Z</time>
      </trkpt>
      <trkpt lat="48.27293" lon="-4.27887">
        <ele>24</ele>
        <time>2022-05-20T08:48:05.000Z</time>
      </trkpt>
      <trkpt lat="48.27295" lon="-4.27886">
        <ele>24</ele>
        <time>2022-05-20T08:48:06.000Z</time>
      </trkpt>
      <trkpt lat="48.27297" lon="-4.27884">
        <ele>24</ele>
        <time>2022-05-20T08:48:07.000Z</time>
      </trkpt>
      <trkpt lat="48.273" lon="-4.27883">
        <ele>24</ele>
        <time>2022-05-20T08:48:08.000Z</time>
      </trkpt>
      <trkpt lat="48.27302" lon="-4.27882">
        <ele>24</ele>
        <time>2022-05-20T08:48:09.000Z</time>
      </trkpt>
      <trkpt lat="48.27324" lon="-4.27876">
        <ele>28</ele>
        <time>2022-05-20T08:48:20.000Z</time>
      </trkpt>
      <trkpt lat="48.27326" lon="-4.27876">
        <ele>29</ele>
        <time>2022-05-20T08:48:21.000Z</time>
      </trkpt>
      <trkpt lat="48.27327" lon="-4.27877">
        <ele>29</ele>
        <time>2022-05-20T08:48:22.000Z</time>
      </trkpt>
      <trkpt lat="48.27329" lon="-4.27877">
        <ele>29</ele>
        <time>2022-05-20T08:48:23.000Z</time>
      </trkpt>
      <trkpt lat="48.27353" lon="-4.27893">
        <ele>32</ele>
        <time>2022-05-20T08:48:34.000Z</time>
      </trkpt>
      <trkpt lat="48.27378" lon="-4.27917">
        <ele>34</ele>
        <time>2022-05-20T08:48:45.000Z</time>
      </trkpt>
      <trkpt lat="48.27407" lon="-4.27968">
        <ele>32</ele>
        <time>2022-05-20T08:48:57.000Z</time>
      </trkpt>
      <trkpt lat="48.27416" lon="-4.27986">
        <ele>31</ele>
        <time>2022-05-20T08:49:01.000Z</time>
      </trkpt>
      <trkpt lat="48.27423" lon="-4.27995">
        <ele>31</ele>
        <time>2022-05-20T08:49:03.000Z</time>
      </trkpt>
      <trkpt lat="48.27426" lon="-4.28">
        <ele>31</ele>
        <time>2022-05-20T08:49:04.000Z</time>
      </trkpt>
      <trkpt lat="48.27463" lon="-4.28048">
        <ele>30</ele>
        <time>2022-05-20T08:49:16.000Z</time>
      </trkpt>
      <trkpt lat="48.27482" lon="-4.28098">
        <ele>29</ele>
        <time>2022-05-20T08:49:26.000Z</time>
      </trkpt>
      <trkpt lat="48.27496" lon="-4.28151">
        <ele>29</ele>
        <time>2022-05-20T08:49:37.000Z</time>
      </trkpt>
      <trkpt lat="48.27501" lon="-4.28186">
        <ele>30</ele>
        <time>2022-05-20T08:49:45.000Z</time>
      </trkpt>
      <trkpt lat="48.27501" lon="-4.28191">
        <ele>30</ele>
        <time>2022-05-20T08:49:46.000Z</time>
      </trkpt>
      <trkpt lat="48.27501" lon="-4.28197">
        <ele>30</ele>
        <time>2022-05-20T08:49:47.000Z</time>
      </trkpt>
      <trkpt lat="48.27501" lon="-4.28202">
        <ele>30</ele>
        <time>2022-05-20T08:49:48.000Z</time>
      </trkpt>
      <trkpt lat="48.275" lon="-4.28208">
        <ele>30</ele>
        <time>2022-05-20T08:49:49.000Z</time>
      </trkpt>
      <trkpt lat="48.27499" lon="-4.28213">
        <ele>30</ele>
        <time>2022-05-20T08:49:50.000Z</time>
      </trkpt>
      <trkpt lat="48.27499" lon="-4.28217">
        <ele>30</ele>
        <time>2022-05-20T08:49:51.000Z</time>
      </trkpt>
      <trkpt lat="48.27498" lon="-4.28222">
        <ele>30</ele>
        <time>2022-05-20T08:49:52.000Z</time>
      </trkpt>
      <trkpt lat="48.27498" lon="-4.28228">
        <ele>30</ele>
        <time>2022-05-20T08:49:53.000Z</time>
      </trkpt>
      <trkpt lat="48.27498" lon="-4.28233">
        <ele>30</ele>
        <time>2022-05-20T08:49:54.000Z</time>
      </trkpt>
      <trkpt lat="48.27497" lon="-4.28238">
        <ele>29</ele>
        <time>2022-05-20T08:49:55.000Z</time>
      </trkpt>
      <trkpt lat="48.27497" lon="-4.28243">
        <ele>29</ele>
        <time>2022-05-20T08:49:56.000Z</time>
      </trkpt>
      <trkpt lat="48.27481" lon="-4.28281">
        <ele>26</ele>
        <time>2022-05-20T08:50:05.000Z</time>
      </trkpt>
      <trkpt lat="48.27464" lon="-4.2831">
        <ele>23</ele>
        <time>2022-05-20T08:50:12.000Z</time>
      </trkpt>
      <trkpt lat="48.27462" lon="-4.28315">
        <ele>23</ele>
        <time>2022-05-20T08:50:13.000Z</time>
      </trkpt>
      <trkpt lat="48.27446" lon="-4.2836">
        <ele>17</ele>
        <time>2022-05-20T08:50:22.000Z</time>
      </trkpt>
      <trkpt lat="48.27433" lon="-4.28421">
        <ele>7</ele>
        <time>2022-05-20T08:50:33.000Z</time>
      </trkpt>
      <trkpt lat="48.27425" lon="-4.28445">
        <ele>1</ele>
        <time>2022-05-20T08:50:38.000Z</time>
      </trkpt>
      <trkpt lat="48.27425" lon="-4.28448">
        <ele>13.7</ele>
        <time>2022-05-20T08:50:39.000Z</time>
      </trkpt>
      <trkpt lat="48.27422" lon="-4.28459">
        <ele>-1</ele>
        <time>2022-05-20T08:50:43.000Z</time>
      </trkpt>
      <trkpt lat="48.27421" lon="-4.28462">
        <ele>-2</ele>
        <time>2022-05-20T08:50:44.000Z</time>
      </trkpt>
      <trkpt lat="48.2742" lon="-4.28467">
        <ele>-2</ele>
        <time>2022-05-20T08:50:45.000Z</time>
      </trkpt>
      <trkpt lat="48.27418" lon="-4.28473">
        <ele>-1</ele>
        <time>2022-05-20T08:50:46.000Z</time>
      </trkpt>
      <trkpt lat="48.27416" lon="-4.2848">
        <ele>-1</ele>
        <time>2022-05-20T08:50:47.000Z</time>
      </trkpt>
      <trkpt lat="48.27397" lon="-4.28536">
        <ele>-5</ele>
        <time>2022-05-20T08:50:58.000Z</time>
      </trkpt>
      <trkpt lat="48.27376" lon="-4.28576">
        <ele>-6</ele>
        <time>2022-05-20T08:51:08.000Z</time>
      </trkpt>
      <trkpt lat="48.27347" lon="-4.28636">
        <ele>-8</ele>
        <time>2022-05-20T08:51:20.000Z</time>
      </trkpt>
      <trkpt lat="48.27344" lon="-4.28647">
        <ele>-9</ele>
        <time>2022-05-20T08:51:21.000Z</time>
      </trkpt>
      <trkpt lat="48.27341" lon="-4.28658">
        <ele>-9</ele>
        <time>2022-05-20T08:51:22.000Z</time>
      </trkpt>
      <trkpt lat="48.27336" lon="-4.2867">
        <ele>-8</ele>
        <time>2022-05-20T08:51:23.000Z</time>
      </trkpt>
      <trkpt lat="48.27313" lon="-4.28728">
        <ele>-5</ele>
        <time>2022-05-20T08:51:28.000Z</time>
      </trkpt>
      <trkpt lat="48.2731" lon="-4.28739">
        <ele>-5</ele>
        <time>2022-05-20T08:51:29.000Z</time>
      </trkpt>
      <trkpt lat="48.27309" lon="-4.28752">
        <ele>-5</ele>
        <time>2022-05-20T08:51:30.000Z</time>
      </trkpt>
      <trkpt lat="48.27309" lon="-4.28763">
        <ele>-4</ele>
        <time>2022-05-20T08:51:31.000Z</time>
      </trkpt>
      <trkpt lat="48.2731" lon="-4.28775">
        <ele>-3</ele>
        <time>2022-05-20T08:51:32.000Z</time>
      </trkpt>
      <trkpt lat="48.27312" lon="-4.28785">
        <ele>-3</ele>
        <time>2022-05-20T08:51:33.000Z</time>
      </trkpt>
      <trkpt lat="48.27329" lon="-4.28894">
        <ele>-2</ele>
        <time>2022-05-20T08:51:43.000Z</time>
      </trkpt>
      <trkpt lat="48.2734" lon="-4.2894">
        <ele>4.6</ele>
        <time>2022-05-20T08:51:47.000Z</time>
      </trkpt>
      <trkpt lat="48.27341" lon="-4.28951">
        <ele>1</ele>
        <time>2022-05-20T08:51:48.000Z</time>
      </trkpt>
      <trkpt lat="48.27342" lon="-4.28961">
        <ele>1</ele>
        <time>2022-05-20T08:51:49.000Z</time>
      </trkpt>
      <trkpt lat="48.27348" lon="-4.29031">
        <ele>5</ele>
        <time>2022-05-20T08:51:57.000Z</time>
      </trkpt>
      <trkpt lat="48.27349" lon="-4.29039">
        <ele>5</ele>
        <time>2022-05-20T08:51:58.000Z</time>
      </trkpt>
      <trkpt lat="48.27354" lon="-4.29122">
        <ele>8</ele>
        <time>2022-05-20T08:52:09.000Z</time>
      </trkpt>
      <trkpt lat="48.27355" lon="-4.29156">
        <ele>9</ele>
        <time>2022-05-20T08:52:14.000Z</time>
      </trkpt>
      <trkpt lat="48.27356" lon="-4.292">
        <ele>9</ele>
        <time>2022-05-20T08:52:21.000Z</time>
      </trkpt>
      <trkpt lat="48.27355" lon="-4.2922">
        <ele>9</ele>
        <time>2022-05-20T08:52:24.000Z</time>
      </trkpt>
      <trkpt lat="48.27354" lon="-4.29227">
        <ele>9</ele>
        <time>2022-05-20T08:52:25.000Z</time>
      </trkpt>
      <trkpt lat="48.27351" lon="-4.29262">
        <ele>8</ele>
        <time>2022-05-20T08:52:30.000Z</time>
      </trkpt>
      <trkpt lat="48.27352" lon="-4.29269">
        <ele>8</ele>
        <time>2022-05-20T08:52:31.000Z</time>
      </trkpt>
      <trkpt lat="48.27353" lon="-4.29276">
        <ele>8</ele>
        <time>2022-05-20T08:52:32.000Z</time>
      </trkpt>
      <trkpt lat="48.27358" lon="-4.29288">
        <ele>8</ele>
        <time>2022-05-20T08:52:34.000Z</time>
      </trkpt>
      <trkpt lat="48.27367" lon="-4.29306">
        <ele>8</ele>
        <time>2022-05-20T08:52:37.000Z</time>
      </trkpt>
      <trkpt lat="48.27369" lon="-4.29313">
        <ele>8</ele>
        <time>2022-05-20T08:52:38.000Z</time>
      </trkpt>
      <trkpt lat="48.27376" lon="-4.29339">
        <ele>7</ele>
        <time>2022-05-20T08:52:42.000Z</time>
      </trkpt>
      <trkpt lat="48.27379" lon="-4.29373">
        <ele>6</ele>
        <time>2022-05-20T08:53:35.000Z</time>
      </trkpt>
      <trkpt lat="48.27381" lon="-4.29371">
        <ele>6</ele>
        <time>2022-05-20T08:53:36.000Z</time>
      </trkpt>
      <trkpt lat="48.27423" lon="-4.29368">
        <ele>20.9</ele>
      </trkpt>
      <trkpt lat="48.27453" lon="-4.29372">
        <ele>30.1</ele>
      </trkpt>
      <trkpt lat="48.27495" lon="-4.29364">
        <ele>38.2</ele>
      </trkpt>
    </trkseg>
  </trk>
</gpx>